Wetterdaten: Donnerstag, 06.05.2021
Datum Zeit Temp. Aussen Temp. o. S. Temp +5cm Feuchte Auss Luftdruck Regen Sonnenschein Regendauer Solar Windben Empfang
06.05.2021 00:00 6,0 C 5,6 C 2,8 C 85 % 1010,2 hPa 0,0 l/m 0 min 0 min 0 W/m 3,2 km/h (1 Bft) 97,87 %
06.05.2021 00:02 6,0 C 5,6 C 2,8 C 85 % 1010,2 hPa 0,0 l/m 0 min 0 min 0 W/m 0,0 km/h (0 Bft) 97,83 %
06.05.2021 00:04 6,0 C 5,6 C 2,3 C 85 % 1010,3 hPa 0,0 l/m 0 min 0 min 0 W/m 3,2 km/h (1 Bft) 100,00 %
06.05.2021 00:08 6,0 C 5,6 C 2,3 C 84 % 1010,2 hPa 0,0 l/m 0 min 0 min 0 W/m 9,7 km/h (2 Bft) 98,94 %
06.05.2021 00:10 6,0 C 5,6 C 2,8 C 84 % 1010,3 hPa 0,0 l/m 0 min 0 min 0 W/m 6,4 km/h (2 Bft) 100,00 %
06.05.2021 00:12 5,9 C 5,6 C 2,3 C 84 % 1010,2 hPa 0,0 l/m 0 min 0 min 0 W/m 6,4 km/h (2 Bft) 100,00 %
06.05.2021 00:14 5,9 C 5,6 C 2,8 C 84 % 1010,2 hPa 0,0 l/m 0 min 0 min 0 W/m 3,2 km/h (1 Bft) 95,74 %
06.05.2021 00:16 5,9 C 5,0 C 2,8 C 84 % 1010,2 hPa 0,0 l/m 0 min 0 min 0 W/m 3,2 km/h (1 Bft) 97,83 %
06.05.2021 00:18 5,9 C 5,6 C 2,8 C 84 % 1010,2 hPa 0,0 l/m 0 min 0 min 0 W/m 3,2 km/h (1 Bft) 100,00 %
06.05.2021 00:20 5,9 C 5,6 C 2,8 C 85 % 1010,3 hPa 0,0 l/m 0 min 0 min 0 W/m 12,9 km/h (3 Bft) 100,00 %
06.05.2021 00:25 5,9 C 5,6 C 2,8 C 85 % 1010,2 hPa 0,0 l/m 0 min 0 min 0 W/m 12,9 km/h (3 Bft) 97,06 %
06.05.2021 00:26 5,9 C 5,6 C 2,8 C 85 % 1010,2 hPa 0,0 l/m 0 min 0 min 0 W/m 12,9 km/h (3 Bft) 100,00 %
06.05.2021 00:28 5,9 C 5,0 C 2,8 C 85 % 1010,1 hPa 0,0 l/m 0 min 0 min 0 W/m 12,9 km/h (3 Bft) 100,00 %
06.05.2021 00:33 5,8 C 5,0 C 2,8 C 85 % 1010,1 hPa 0,0 l/m 0 min 0 min 0 W/m 6,4 km/h (2 Bft) 98,51 %
06.05.2021 00:34 5,8 C 5,0 C 2,8 C 85 % 1010,1 hPa 0,0 l/m 0 min 0 min 0 W/m 6,4 km/h (2 Bft) 95,83 %
06.05.2021 00:36 5,8 C 5,0 C 2,8 C 85 % 1010,1 hPa 0,0 l/m 0 min 0 min 0 W/m 6,4 km/h (2 Bft) 95,74 %
06.05.2021 00:38 5,8 C 5,0 C 2,8 C 85 % 1010,1 hPa 0,0 l/m 0 min 0 min 0 W/m 6,4 km/h (2 Bft) 95,74 %
06.05.2021 00:40 5,8 C 5,0 C 2,8 C 85 % 1010,2 hPa 0,0 l/m 0 min 0 min 0 W/m 0,0 km/h (0 Bft) 95,65 %
06.05.2021 00:42 5,8 C 5,0 C 2,8 C 85 % 1010,2 hPa 0,0 l/m 0 min 0 min 0 W/m 3,2 km/h (1 Bft) 95,74 %
06.05.2021 00:44 5,8 C 5,0 C 2,8 C 85 % 1010,2 hPa 0,0 l/m 0 min 0 min 0 W/m 6,4 km/h (2 Bft) 95,74 %
06.05.2021 00:46 5,8 C 5,0 C 2,8 C 86 % 1010,2 hPa 0,0 l/m 0 min 0 min 0 W/m 9,7 km/h (2 Bft) 97,87 %
06.05.2021 00:48 5,8 C 5,0 C 2,8 C 86 % 1010,2 hPa 0,0 l/m 0 min 2 min 0 W/m 12,9 km/h (3 Bft) 97,87 %
06.05.2021 00:50 5,8 C 5,0 C 2,8 C 86 % 1010,0 hPa 0,0 l/m 0 min 2 min 0 W/m 12,9 km/h (3 Bft) 93,62 %
06.05.2021 00:52 5,7 C 5,0 C 2,8 C 86 % 1010,0 hPa 0,0 l/m 0 min 2 min 0 W/m 12,9 km/h (3 Bft) 95,65 %
06.05.2021 00:54 5,7 C 5,0 C 2,3 C 86 % 1009,9 hPa 0,0 l/m 0 min 2 min 0 W/m 12,9 km/h (3 Bft) 95,74 %
06.05.2021 00:56 5,7 C 5,0 C 2,3 C 87 % 1009,7 hPa 0,2 l/m 0 min 2 min 0 W/m 12,9 km/h (3 Bft) 95,74 %
06.05.2021 00:58 5,7 C 4,4 C 2,3 C 87 % 1009,6 hPa 0,0 l/m 0 min 2 min 0 W/m 12,9 km/h (3 Bft) 97,87 %
06.05.2021 01:00 5,6 C 4,4 C 2,3 C 87 % 1009,7 hPa 0,0 l/m 0 min 0 min 0 W/m 6,4 km/h (2 Bft) 93,62 %
06.05.2021 01:02 5,6 C 4,4 C 2,3 C 87 % 1009,8 hPa 0,0 l/m 0 min 0 min 0 W/m 6,4 km/h (2 Bft) 93,62 %
06.05.2021 01:04 5,6 C 4,4 C 2,3 C 87 % 1009,7 hPa 0,0 l/m 0 min 0 min 0 W/m 6,4 km/h (2 Bft) 95,65 %
06.05.2021 01:06 5,6 C 4,4 C 2,3 C 88 % 1009,7 hPa 0,0 l/m 0 min 0 min 0 W/m 3,2 km/h (1 Bft) 70,21 %
06.05.2021 01:08 5,5 C 4,4 C 2,3 C 88 % 1009,7 hPa 0,0 l/m 0 min 0 min 0 W/m 6,4 km/h (2 Bft) 69,44 %
06.05.2021 01:10 5,5 C 4,4 C 2,3 C 88 % 1009,6 hPa 0,0 l/m 0 min 0 min 0 W/m 6,4 km/h (2 Bft) 91,49 %
06.05.2021 01:12 5,5 C 4,4 C 1,7 C 88 % 1009,5 hPa 0,0 l/m 0 min 0 min 0 W/m 6,4 km/h (2 Bft) 93,62 %
06.05.2021 01:14 5,4 C 4,4 C 1,7 C 88 % 1009,5 hPa 0,0 l/m 0 min 0 min 0 W/m 3,2 km/h (1 Bft) 93,62 %
06.05.2021 01:16 5,4 C 4,4 C 1,7 C 88 % 1009,5 hPa 0,0 l/m 0 min 0 min 0 W/m 3,2 km/h (1 Bft) 93,48 %
06.05.2021 01:18 5,4 C 4,4 C 1,7 C 88 % 1009,5 hPa 0,0 l/m 0 min 0 min 0 W/m 6,4 km/h (2 Bft) 93,62 %
06.05.2021 01:20 5,4 C 4,4 C 1,7 C 89 % 1009,5 hPa 0,0 l/m 0 min 0 min 0 W/m 6,4 km/h (2 Bft) 93,62 %
06.05.2021 01:22 5,4 C 4,4 C 2,3 C 88 % 1009,6 hPa 0,0 l/m 0 min 0 min 0 W/m 6,4 km/h (2 Bft) 93,62 %
06.05.2021 01:24 5,3 C 4,4 C 1,7 C 89 % 1009,6 hPa 0,0 l/m 0 min 0 min 0 W/m 12,9 km/h (3 Bft) 93,62 %
06.05.2021 01:26 5,3 C 4,4 C 1,7 C 89 % 1009,5 hPa 0,0 l/m 0 min 0 min 0 W/m 9,7 km/h (2 Bft) 95,65 %
06.05.2021 01:28 5,3 C 4,4 C 2,3 C 89 % 1009,6 hPa 0,0 l/m 0 min 0 min 0 W/m 6,4 km/h (2 Bft) 93,62 %
06.05.2021 01:30 5,3 C 4,4 C 2,3 C 89 % 1009,6 hPa 0,0 l/m 0 min 0 min 0 W/m 12,9 km/h (3 Bft) 93,62 %
06.05.2021 01:32 5,3 C 4,4 C 2,3 C 90 % 1009,7 hPa 0,0 l/m 0 min 0 min 0 W/m 9,7 km/h (2 Bft) 95,74 %
06.05.2021 01:34 5,3 C 4,4 C 2,3 C 90 % 1009,5 hPa 0,0 l/m 0 min 0 min 0 W/m 6,4 km/h (2 Bft) 95,74 %
06.05.2021 01:36 5,2 C 4,4 C 2,3 C 90 % 1009,5 hPa 0,0 l/m 0 min 0 min 0 W/m 3,2 km/h (1 Bft) 93,62 %
06.05.2021 01:38 5,2 C 4,4 C 2,3 C 90 % 1009,5 hPa 0,0 l/m 0 min 0 min 0 W/m 3,2 km/h (1 Bft) 95,65 %
06.05.2021 01:40 5,2 C 4,4 C 2,3 C 90 % 1009,4 hPa 0,0 l/m 0 min 0 min 0 W/m 6,4 km/h (2 Bft) 95,74 %
06.05.2021 01:42 5,1 C 4,4 C 2,3 C 90 % 1009,4 hPa 0,0 l/m 0 min 0 min 0 W/m 12,9 km/h (3 Bft) 95,74 %
06.05.2021 01:44 5,1 C 4,4 C 1,7 C 90 % 1009,4 hPa 0,0 l/m 0 min 0 min 0 W/m 6,4 km/h (2 Bft) 93,62 %
06.05.2021 01:46 5,1 C 4,4 C 1,7 C 90 % 1009,3 hPa 0,0 l/m 0 min 0 min 0 W/m 12,9 km/h (3 Bft) 95,74 %
06.05.2021 01:48 5,1 C 4,4 C 2,3 C 90 % 1009,4 hPa 0,0 l/m 0 min 0 min 0 W/m 6,4 km/h (2 Bft) 93,62 %
06.05.2021 01:50 5,1 C 4,4 C 2,3 C 90 % 1009,4 hPa 0,0 l/m 0 min 0 min 0 W/m 9,7 km/h (2 Bft) 95,65 %
06.05.2021 01:52 5,0 C 4,4 C 2,3 C 90 % 1009,4 hPa 0,0 l/m 0 min 0 min 0 W/m 6,4 km/h (2 Bft) 97,87 %
06.05.2021 01:54 5,0 C 4,4 C 2,3 C 90 % 1009,4 hPa 0,0 l/m 0 min 0 min 0 W/m 9,7 km/h (2 Bft) 95,74 %
06.05.2021 01:56 5,0 C 4,4 C 2,3 C 90 % 1009,4 hPa 0,0 l/m 0 min 0 min 0 W/m 12,9 km/h (3 Bft) 95,74 %
06.05.2021 01:58 5,0 C 4,4 C 2,3 C 90 % 1009,4 hPa 0,0 l/m 0 min 0 min 0 W/m 9,7 km/h (2 Bft) 95,74 %
06.05.2021 02:00 5,0 C 4,4 C 2,3 C 90 % 1009,4 hPa 0,0 l/m 0 min 0 min 0 W/m 3,2 km/h (1 Bft) 95,74 %
06.05.2021 02:02 5,0 C 4,4 C 2,3 C 90 % 1009,4 hPa 0,0 l/m 0 min 0 min 0 W/m 6,4 km/h (2 Bft) 93,48 %
06.05.2021 02:04 5,1 C 4,4 C 2,3 C 90 % 1009,4 hPa 0,0 l/m 0 min 0 min 0 W/m 6,4 km/h (2 Bft) 95,74 %
06.05.2021 02:06 5,1 C 4,4 C 2,3 C 90 % 1009,4 hPa 0,0 l/m 0 min 0 min 0 W/m 9,7 km/h (2 Bft) 97,87 %
06.05.2021 02:08 5,0 C 4,4 C 2,3 C 90 % 1009,3 hPa 0,0 l/m 0 min 0 min 0 W/m 3,2 km/h (1 Bft) 100,00 %
06.05.2021 02:10 5,0 C 4,4 C 2,3 C 90 % 1009,3 hPa 0,0 l/m 0 min 0 min 0 W/m 3,2 km/h (1 Bft) 95,74 %
06.05.2021 02:12 5,0 C 3,9 C 2,3 C 90 % 1009,2 hPa 0,0 l/m 0 min 0 min 0 W/m 3,2 km/h (1 Bft) 100,00 %
06.05.2021 02:14 5,0 C 3,9 C 2,3 C 90 % 1009,2 hPa 0,0 l/m 0 min 0 min 0 W/m 6,4 km/h (2 Bft) 100,00 %
06.05.2021 02:16 5,0 C 3,9 C 1,7 C 90 % 1009,2 hPa 0,0 l/m 0 min 0 min 0 W/m 6,4 km/h (2 Bft) 97,87 %
06.05.2021 02:18 4,9 C 3,9 C 1,7 C 91 % 1009,2 hPa 0,0 l/m 0 min 0 min 0 W/m 6,4 km/h (2 Bft) 97,87 %
06.05.2021 02:20 4,9 C 3,9 C 1,7 C 90 % 1009,1 hPa 0,0 l/m 0 min 0 min 0 W/m 6,4 km/h (2 Bft) 97,87 %
06.05.2021 02:22 4,9 C 3,9 C 1,7 C 90 % 1009,1 hPa 0,0 l/m 0 min 0 min 0 W/m 3,2 km/h (1 Bft) 100,00 %
06.05.2021 02:24 4,8 C 3,9 C 1,7 C 90 % 1009,1 hPa 0,0 l/m 0 min 0 min 0 W/m 3,2 km/h (1 Bft) 97,87 %
06.05.2021 02:26 4,8 C 3,9 C 1,7 C 90 % 1009,1 hPa 0,0 l/m 0 min 0 min 0 W/m 9,7 km/h (2 Bft) 100,00 %
06.05.2021 02:28 4,8 C 3,9 C 1,7 C 90 % 1009,1 hPa 0,0 l/m 0 min 0 min 0 W/m 3,2 km/h (1 Bft) 100,00 %
06.05.2021 02:30 4,8 C 3,9 C 2,3 C 90 % 1009,0 hPa 0,0 l/m 0 min 0 min 0 W/m 3,2 km/h (1 Bft) 100,00 %
06.05.2021 02:32 4,8 C 3,9 C 2,3 C 90 % 1009,0 hPa 0,0 l/m 0 min 0 min 0 W/m 9,7 km/h (2 Bft) 100,00 %
06.05.2021 02:34 4,8 C 4,4 C 2,3 C 90 % 1009,0 hPa 0,0 l/m 0 min 0 min 0 W/m 6,4 km/h (2 Bft) 97,87 %
06.05.2021 02:36 4,8 C 4,4 C 2,3 C 90 % 1009,1 hPa 0,0 l/m 0 min 0 min 0 W/m 6,4 km/h (2 Bft) 97,83 %
06.05.2021 02:38 4,8 C 4,4 C 2,3 C 90 % 1009,0 hPa 0,0 l/m 0 min 0 min 0 W/m 3,2 km/h (1 Bft) 100,00 %
06.05.2021 02:40 4,8 C 4,4 C 2,3 C 90 % 1009,0 hPa 0,0 l/m 0 min 0 min 0 W/m 6,4 km/h (2 Bft) 100,00 %
06.05.2021 02:42 4,8 C 4,4 C 2,3 C 90 % 1009,0 hPa 0,0 l/m 0 min 0 min 0 W/m 6,4 km/h (2 Bft) 100,00 %
06.05.2021 02:44 4,8 C 4,4 C 2,3 C 90 % 1009,0 hPa 0,0 l/m 0 min 0 min 0 W/m 3,2 km/h (1 Bft) 95,74 %
06.05.2021 02:46 4,8 C 4,4 C 2,3 C 90 % 1009,0 hPa 0,0 l/m 0 min 0 min 0 W/m 6,4 km/h (2 Bft) 100,00 %
06.05.2021 02:48 4,8 C 4,4 C 2,3 C 90 % 1009,0 hPa 0,0 l/m 0 min 0 min 0 W/m 6,4 km/h (2 Bft) 100,00 %
06.05.2021 02:50 4,8 C 4,4 C 2,3 C 90 % 1008,9 hPa 0,0 l/m 0 min 0 min 0 W/m 9,7 km/h (2 Bft) 100,00 %
06.05.2021 02:52 4,8 C 4,4 C 2,3 C 90 % 1008,9 hPa 0,0 l/m 0 min 0 min 0 W/m 3,2 km/h (1 Bft) 95,74 %
06.05.2021 02:54 4,8 C 4,4 C 2,3 C 90 % 1008,9 hPa 0,0 l/m 0 min 0 min 0 W/m 12,9 km/h (3 Bft) 100,00 %
06.05.2021 02:56 4,8 C 4,4 C 2,3 C 90 % 1008,9 hPa 0,0 l/m 0 min 0 min 0 W/m 9,7 km/h (2 Bft) 95,74 %
06.05.2021 02:58 4,8 C 4,4 C 2,3 C 90 % 1008,8 hPa 0,0 l/m 0 min 0 min 0 W/m 6,4 km/h (2 Bft) 97,87 %
06.05.2021 03:00 4,8 C 4,4 C 2,3 C 90 % 1008,8 hPa 0,0 l/m 0 min 0 min 0 W/m 9,7 km/h (2 Bft) 97,87 %
06.05.2021 03:02 4,8 C 4,4 C 2,3 C 90 % 1008,8 hPa 0,0 l/m 0 min 0 min 0 W/m 6,4 km/h (2 Bft) 97,83 %
06.05.2021 03:04 4,8 C 4,4 C 2,3 C 90 % 1008,8 hPa 0,0 l/m 0 min 0 min 0 W/m 6,4 km/h (2 Bft) 95,74 %
06.05.2021 03:06 4,8 C 4,4 C 2,3 C 90 % 1008,8 hPa 0,0 l/m 0 min 2 min 0 W/m 9,7 km/h (2 Bft) 97,87 %
06.05.2021 03:08 4,8 C 4,4 C 2,3 C 90 % 1008,9 hPa 0,0 l/m 0 min 2 min 0 W/m 9,7 km/h (2 Bft) 97,87 %
06.05.2021 03:10 4,8 C 4,4 C 2,3 C 90 % 1008,8 hPa 0,0 l/m 0 min 2 min 0 W/m 12,9 km/h (3 Bft) 61,70 %
06.05.2021 03:12 4,8 C 4,4 C 2,3 C 90 % 1008,8 hPa 0,0 l/m 0 min 2 min 0 W/m 6,4 km/h (2 Bft) 90,91 %
06.05.2021 03:14 4,8 C 4,4 C 2,3 C 90 % 1008,6 hPa 0,0 l/m 0 min 0 min 0 W/m 12,9 km/h (3 Bft) 97,87 %
06.05.2021 03:16 4,8 C 4,4 C 2,3 C 90 % 1008,7 hPa 0,0 l/m 0 min 0 min 0 W/m 12,9 km/h (3 Bft) 97,87 %
06.05.2021 03:18 4,8 C 4,4 C 2,3 C 90 % 1008,7 hPa 0,0 l/m 0 min 0 min 0 W/m 6,4 km/h (2 Bft) 97,87 %
06.05.2021 03:20 4,8 C 4,4 C 2,3 C 91 % 1008,6 hPa 0,0 l/m 0 min 0 min 0 W/m 16,1 km/h (3 Bft) 97,87 %
06.05.2021 03:22 4,8 C 4,4 C 2,3 C 91 % 1008,6 hPa 0,0 l/m 0 min 0 min 0 W/m 9,7 km/h (2 Bft) 93,62 %
06.05.2021 03:24 4,8 C 4,4 C 2,3 C 90 % 1008,6 hPa 0,0 l/m 0 min 0 min 0 W/m 6,4 km/h (2 Bft) 97,83 %
06.05.2021 03:26 4,8 C 4,4 C 2,3 C 91 % 1008,6 hPa 0,0 l/m 0 min 0 min 0 W/m 6,4 km/h (2 Bft) 95,74 %
06.05.2021 03:28 4,8 C 3,9 C 2,3 C 91 % 1008,5 hPa 0,0 l/m 0 min 0 min 0 W/m 6,4 km/h (2 Bft) 100,00 %
06.05.2021 03:30 4,8 C 3,9 C 2,3 C 91 % 1008,6 hPa 0,0 l/m 0 min 0 min 0 W/m 6,4 km/h (2 Bft) 100,00 %
06.05.2021 03:32 4,8 C 3,9 C 2,3 C 91 % 1008,5 hPa 0,0 l/m 0 min 0 min 0 W/m 12,9 km/h (3 Bft) 100,00 %
06.05.2021 03:34 4,8 C 3,9 C 2,3 C 91 % 1008,5 hPa 0,0 l/m 0 min 0 min 0 W/m 6,4 km/h (2 Bft) 100,00 %
06.05.2021 03:36 4,8 C 3,9 C 2,3 C 91 % 1008,4 hPa 0,0 l/m 0 min 0 min 0 W/m 3,2 km/h (1 Bft) 100,00 %
06.05.2021 03:38 4,8 C 3,9 C 2,3 C 91 % 1008,4 hPa 0,0 l/m 0 min 0 min 0 W/m 6,4 km/h (2 Bft) 100,00 %
06.05.2021 03:40 4,7 C 3,9 C 2,3 C 91 % 1008,4 hPa 0,0 l/m 0 min 0 min 0 W/m 6,4 km/h (2 Bft) 100,00 %
06.05.2021 03:42 4,7 C 3,9 C 2,3 C 91 % 1008,4 hPa 0,0 l/m 0 min 0 min 0 W/m 9,7 km/h (2 Bft) 100,00 %
06.05.2021 03:44 4,7 C 3,9 C 2,3 C 91 % 1008,4 hPa 0,0 l/m 0 min 0 min 0 W/m 6,4 km/h (2 Bft) 97,87 %
06.05.2021 03:46 4,7 C 3,9 C 2,3 C 91 % 1008,3 hPa 0,0 l/m 0 min 0 min 0 W/m 16,1 km/h (3 Bft) 100,00 %
06.05.2021 03:48 4,7 C 3,9 C 2,3 C 91 % 1008,3 hPa 0,0 l/m 0 min 0 min 0 W/m 6,4 km/h (2 Bft) 100,00 %
06.05.2021 03:50 4,6 C 3,9 C 2,3 C 91 % 1008,3 hPa 0,0 l/m 0 min 0 min 0 W/m 9,7 km/h (2 Bft) 97,83 %
06.05.2021 03:52 4,6 C 3,9 C 2,3 C 91 % 1008,3 hPa 0,0 l/m 0 min 0 min 0 W/m 12,9 km/h (3 Bft) 100,00 %
06.05.2021 03:54 4,6 C 3,9 C 2,3 C 91 % 1008,3 hPa 0,0 l/m 0 min 0 min 0 W/m 12,9 km/h (3 Bft) 100,00 %
06.05.2021 03:56 4,6 C 4,4 C 2,3 C 91 % 1008,2 hPa 0,0 l/m 0 min 0 min 0 W/m 9,7 km/h (2 Bft) 100,00 %
06.05.2021 03:58 4,6 C 4,4 C 2,3 C 91 % 1008,2 hPa 0,0 l/m 0 min 0 min 0 W/m 16,1 km/h (3 Bft) 100,00 %
06.05.2021 04:00 4,6 C 4,4 C 2,3 C 91 % 1008,3 hPa 0,0 l/m 0 min 0 min 0 W/m 12,9 km/h (3 Bft) 97,87 %
06.05.2021 04:02 4,7 C 4,4 C 2,3 C 91 % 1008,3 hPa 0,0 l/m 0 min 0 min 0 W/m 19,3 km/h (3 Bft) 100,00 %
06.05.2021 04:04 4,7 C 4,4 C 2,3 C 91 % 1008,4 hPa 0,0 l/m 0 min 2 min 0 W/m 22,5 km/h (4 Bft) 100,00 %
06.05.2021 04:09 4,8 C 4,4 C 2,3 C 92 % 1008,5 hPa 0,2 l/m 0 min 5 min 0 W/m 25,7 km/h (4 Bft) 96,88 %
06.05.2021 04:10 4,8 C 4,4 C 2,3 C 92 % 1008,5 hPa 0,0 l/m 0 min 1 min 0 W/m 25,7 km/h (4 Bft) 100,00 %
06.05.2021 04:12 4,8 C 3,9 C 2,3 C 92 % 1008,5 hPa 0,0 l/m 0 min 2 min 0 W/m 29,0 km/h (5 Bft) 100,00 %
06.05.2021 04:14 4,8 C 3,9 C 2,3 C 92 % 1008,4 hPa 0,2 l/m 0 min 2 min 0 W/m 22,5 km/h (4 Bft) 100,00 %
06.05.2021 04:16 4,8 C 3,9 C 2,3 C 92 % 1008,5 hPa 0,2 l/m 0 min 2 min 0 W/m 32,2 km/h (5 Bft) 100,00 %
06.05.2021 04:18 4,9 C 3,9 C 2,3 C 92 % 1008,4 hPa 0,0 l/m 0 min 2 min 0 W/m 9,7 km/h (2 Bft) 100,00 %
06.05.2021 04:20 4,9 C 3,9 C 2,3 C 92 % 1008,4 hPa 0,0 l/m 0 min 2 min 0 W/m 9,7 km/h (2 Bft) 100,00 %
06.05.2021 04:22 4,9 C 3,9 C 2,3 C 92 % 1008,4 hPa 0,2 l/m 0 min 2 min 0 W/m 9,7 km/h (2 Bft) 100,00 %
06.05.2021 04:24 4,9 C 3,9 C 2,3 C 93 % 1008,3 hPa 0,0 l/m 0 min 2 min 0 W/m 12,9 km/h (3 Bft) 97,83 %
06.05.2021 04:26 4,9 C 3,9 C 2,3 C 93 % 1008,3 hPa 0,2 l/m 0 min 2 min 0 W/m 12,9 km/h (3 Bft) 100,00 %
06.05.2021 04:28 4,9 C 3,9 C 2,3 C 93 % 1008,3 hPa 0,0 l/m 0 min 2 min 0 W/m 12,9 km/h (3 Bft) 100,00 %
06.05.2021 04:30 4,9 C 3,9 C 2,3 C 93 % 1008,3 hPa 0,0 l/m 0 min 2 min 0 W/m 16,1 km/h (3 Bft) 97,87 %
06.05.2021 04:32 4,9 C 3,9 C 2,3 C 93 % 1008,3 hPa 0,0 l/m 0 min 2 min 0 W/m 12,9 km/h (3 Bft) 100,00 %
06.05.2021 04:34 4,9 C 3,9 C 2,3 C 93 % 1008,3 hPa 0,0 l/m 0 min 2 min 0 W/m 16,1 km/h (3 Bft) 100,00 %
06.05.2021 04:36 4,8 C 3,9 C 2,3 C 93 % 1008,3 hPa 0,0 l/m 0 min 2 min 0 W/m 22,5 km/h (4 Bft) 97,83 %
06.05.2021 04:38 4,8 C 3,9 C 2,3 C 93 % 1008,3 hPa 0,0 l/m 0 min 2 min 0 W/m 16,1 km/h (3 Bft) 100,00 %
06.05.2021 04:40 4,8 C 3,9 C 2,3 C 93 % 1008,3 hPa 0,0 l/m 0 min 2 min 0 W/m 19,3 km/h (3 Bft) 95,74 %
06.05.2021 04:42 4,8 C 3,9 C 2,3 C 93 % 1008,3 hPa 0,0 l/m 0 min 2 min 0 W/m 9,7 km/h (2 Bft) 91,49 %
06.05.2021 04:44 4,8 C 3,9 C 2,3 C 93 % 1008,2 hPa 0,0 l/m 0 min 2 min 0 W/m 16,1 km/h (3 Bft) 97,87 %
06.05.2021 04:46 4,8 C 3,9 C 2,3 C 93 % 1008,2 hPa 0,0 l/m 0 min 2 min 0 W/m 16,1 km/h (3 Bft) 98,15 %
06.05.2021 04:48 4,8 C 3,9 C 2,8 C 93 % 1008,1 hPa 0,0 l/m 0 min 2 min 0 W/m 19,3 km/h (3 Bft) 97,87 %
06.05.2021 04:50 4,8 C 3,9 C 2,8 C 94 % 1008,1 hPa 0,0 l/m 0 min 2 min 0 W/m 16,1 km/h (3 Bft) 97,87 %
06.05.2021 04:52 4,8 C 3,9 C 2,3 C 94 % 1008,1 hPa 0,0 l/m 0 min 2 min 0 W/m 19,3 km/h (3 Bft) 95,74 %
06.05.2021 04:54 4,8 C 3,9 C 2,3 C 94 % 1008,1 hPa 0,0 l/m 0 min 2 min 0 W/m 22,5 km/h (4 Bft) 97,87 %
06.05.2021 04:56 4,8 C 3,9 C 2,3 C 94 % 1008,1 hPa 0,0 l/m 0 min 2 min 0 W/m 16,1 km/h (3 Bft) 95,74 %
06.05.2021 04:58 4,8 C 3,9 C 2,3 C 94 % 1008,0 hPa 0,0 l/m 0 min 2 min 0 W/m 12,9 km/h (3 Bft) 97,83 %
06.05.2021 05:00 4,8 C 3,9 C 2,3 C 94 % 1008,0 hPa 0,0 l/m 0 min 2 min 0 W/m 12,9 km/h (3 Bft) 97,87 %
06.05.2021 05:02 4,8 C 3,9 C 2,3 C 94 % 1008,0 hPa 0,0 l/m 0 min 2 min 0 W/m 12,9 km/h (3 Bft) 93,62 %
06.05.2021 05:04 4,8 C 3,9 C 2,3 C 94 % 1008,0 hPa 0,0 l/m 0 min 0 min 0 W/m 6,4 km/h (2 Bft) 97,87 %
06.05.2021 05:06 4,8 C 3,9 C 2,3 C 94 % 1007,9 hPa 0,0 l/m 0 min 2 min 0 W/m 9,7 km/h (2 Bft) 93,62 %
06.05.2021 05:08 4,8 C 3,9 C 2,8 C 94 % 1008,0 hPa 0,0 l/m 0 min 2 min 0 W/m 6,4 km/h (2 Bft) 95,65 %
06.05.2021 05:10 4,8 C 3,9 C 2,8 C 94 % 1008,0 hPa 0,0 l/m 0 min 2 min 0 W/m 9,7 km/h (2 Bft) 95,74 %
06.05.2021 05:12 4,8 C 3,9 C 2,8 C 94 % 1008,0 hPa 0,0 l/m 0 min 0 min 0 W/m 19,3 km/h (3 Bft) 94,74 %
06.05.2021 05:14 4,8 C 3,9 C 2,8 C 94 % 1007,9 hPa 0,0 l/m 0 min 2 min 0 W/m 9,7 km/h (2 Bft) 95,74 %
06.05.2021 05:16 4,8 C 3,9 C 2,8 C 94 % 1007,9 hPa 0,0 l/m 0 min 0 min 0 W/m 12,9 km/h (3 Bft) 93,62 %
06.05.2021 05:18 4,8 C 4,4 C 2,3 C 94 % 1008,0 hPa 0,0 l/m 0 min 0 min 0 W/m 16,1 km/h (3 Bft) 95,74 %
06.05.2021 05:20 4,8 C 4,4 C 2,3 C 94 % 1007,9 hPa 0,0 l/m 0 min 0 min 0 W/m 9,7 km/h (2 Bft) 95,74 %
06.05.2021 05:22 4,8 C 4,4 C 2,8 C 94 % 1007,9 hPa 0,0 l/m 0 min 0 min 0 W/m 12,9 km/h (3 Bft) 97,83 %
06.05.2021 05:24 4,8 C 4,4 C 2,8 C 94 % 1007,9 hPa 0,0 l/m 0 min 0 min 0 W/m 6,4 km/h (2 Bft) 95,74 %
06.05.2021 05:26 4,8 C 4,4 C 2,8 C 94 % 1007,9 hPa 0,0 l/m 0 min 0 min 0 W/m 6,4 km/h (2 Bft) 95,74 %
06.05.2021 05:28 4,8 C 4,4 C 2,8 C 94 % 1007,9 hPa 0,0 l/m 0 min 0 min 0 W/m 12,9 km/h (3 Bft) 95,74 %
06.05.2021 05:30 4,8 C 4,4 C 2,8 C 94 % 1007,9 hPa 0,0 l/m 0 min 0 min 0 W/m 19,3 km/h (3 Bft) 93,62 %
06.05.2021 05:32 4,8 C 4,4 C 2,8 C 94 % 1007,9 hPa 0,0 l/m 0 min 0 min 0 W/m 19,3 km/h (3 Bft) 95,74 %
06.05.2021 05:34 4,8 C 4,4 C 2,8 C 94 % 1007,9 hPa 0,0 l/m 0 min 0 min 0 W/m 12,9 km/h (3 Bft) 95,65 %
06.05.2021 05:36 4,8 C 4,4 C 2,8 C 94 % 1008,0 hPa 0,0 l/m 0 min 0 min 0 W/m 6,4 km/h (2 Bft) 95,74 %
06.05.2021 05:38 4,8 C 4,4 C 2,8 C 94 % 1007,9 hPa 0,0 l/m 0 min 0 min 0 W/m 12,9 km/h (3 Bft) 95,74 %
06.05.2021 05:40 4,8 C 3,9 C 2,8 C 94 % 1007,9 hPa 0,0 l/m 0 min 0 min 0 W/m 3,2 km/h (1 Bft) 97,87 %
06.05.2021 05:42 4,8 C 3,9 C 2,3 C 94 % 1007,9 hPa 0,0 l/m 0 min 0 min 0 W/m 6,4 km/h (2 Bft) 97,92 %
06.05.2021 05:44 4,8 C 3,9 C 2,3 C 94 % 1007,9 hPa 0,0 l/m 0 min 0 min 0 W/m 9,7 km/h (2 Bft) 100,00 %
06.05.2021 05:46 4,8 C 3,9 C 2,3 C 94 % 1007,9 hPa 0,0 l/m 0 min 0 min 0 W/m 16,1 km/h (3 Bft) 97,83 %
06.05.2021 05:48 4,8 C 3,9 C 2,3 C 94 % 1007,9 hPa 0,0 l/m 0 min 0 min 0 W/m 9,7 km/h (2 Bft) 100,00 %
06.05.2021 05:50 4,8 C 3,9 C 2,3 C 94 % 1007,8 hPa 0,0 l/m 0 min 0 min 0 W/m 12,9 km/h (3 Bft) 100,00 %
06.05.2021 05:52 4,8 C 3,9 C 2,3 C 94 % 1007,8 hPa 0,0 l/m 0 min 0 min 0 W/m 12,9 km/h (3 Bft) 100,00 %
06.05.2021 05:54 4,7 C 3,9 C 2,3 C 94 % 1007,8 hPa 0,0 l/m 0 min 0 min 0 W/m 6,4 km/h (2 Bft) 100,00 %
06.05.2021 05:56 4,8 C 3,9 C 2,3 C 94 % 1007,7 hPa 0,0 l/m 0 min 0 min 2 W/m 6,4 km/h (2 Bft) 97,87 %
06.05.2021 05:58 4,7 C 3,9 C 2,3 C 94 % 1007,7 hPa 0,0 l/m 0 min 0 min 5 W/m 12,9 km/h (3 Bft) 100,00 %
06.05.2021 06:00 4,7 C 3,9 C 2,3 C 94 % 1007,8 hPa 0,0 l/m 0 min 0 min 5 W/m 9,7 km/h (2 Bft) 100,00 %
06.05.2021 06:02 4,7 C 3,9 C 2,3 C 94 % 1007,8 hPa 0,0 l/m 0 min 0 min 5 W/m 12,9 km/h (3 Bft) 100,00 %
06.05.2021 06:04 4,6 C 3,9 C 2,3 C 94 % 1007,9 hPa 0,0 l/m 0 min 0 min 5 W/m 12,9 km/h (3 Bft) 100,00 %
06.05.2021 06:08 4,6 C 3,9 C 2,3 C 94 % 1007,8 hPa 0,0 l/m 0 min 0 min 6 W/m 12,9 km/h (3 Bft) 100,00 %
06.05.2021 06:10 4,6 C 3,9 C 2,3 C 94 % 1007,8 hPa 0,0 l/m 0 min 0 min 7 W/m 6,4 km/h (2 Bft) 100,00 %
06.05.2021 06:12 4,6 C 3,9 C 2,3 C 94 % 1007,9 hPa 0,0 l/m 0 min 0 min 11 W/m 6,4 km/h (2 Bft) 100,00 %
06.05.2021 06:14 4,6 C 3,9 C 2,3 C 94 % 1007,9 hPa 0,0 l/m 0 min 0 min 12 W/m 12,9 km/h (3 Bft) 97,87 %
06.05.2021 06:16 4,6 C 3,9 C 2,3 C 94 % 1008,0 hPa 0,0 l/m 0 min 0 min 12 W/m 12,9 km/h (3 Bft) 100,00 %
06.05.2021 06:18 4,7 C 3,9 C 2,3 C 94 % 1008,0 hPa 0,0 l/m 0 min 0 min 12 W/m 12,9 km/h (3 Bft) 100,00 %
06.05.2021 06:20 4,7 C 4,4 C 2,8 C 94 % 1008,1 hPa 0,0 l/m 0 min 0 min 13 W/m 6,4 km/h (2 Bft) 100,00 %
06.05.2021 06:22 4,8 C 4,4 C 2,8 C 94 % 1008,1 hPa 0,0 l/m 0 min 0 min 14 W/m 12,9 km/h (3 Bft) 100,00 %
06.05.2021 06:24 4,8 C 4,4 C 2,8 C 94 % 1008,1 hPa 0,0 l/m 0 min 0 min 17 W/m 6,4 km/h (2 Bft) 100,00 %
06.05.2021 06:26 4,8 C 4,4 C 2,8 C 94 % 1008,0 hPa 0,0 l/m 0 min 0 min 18 W/m 6,4 km/h (2 Bft) 100,00 %
06.05.2021 06:28 4,8 C 4,4 C 2,8 C 94 % 1008,0 hPa 0,0 l/m 0 min 0 min 19 W/m 3,2 km/h (1 Bft) 97,87 %
06.05.2021 06:30 4,8 C 4,4 C 2,8 C 94 % 1008,1 hPa 0,0 l/m 0 min 0 min 19 W/m 16,1 km/h (3 Bft) 97,87 %
06.05.2021 06:32 4,8 C 4,4 C 2,8 C 94 % 1008,1 hPa 0,0 l/m 0 min 0 min 18 W/m 6,4 km/h (2 Bft) 95,65 %
06.05.2021 06:34 4,8 C 4,4 C 2,8 C 95 % 1008,0 hPa 0,0 l/m 0 min 0 min 17 W/m 6,4 km/h (2 Bft) 95,74 %
06.05.2021 06:36 4,9 C 4,4 C 2,8 C 95 % 1008,1 hPa 0,0 l/m 0 min 0 min 17 W/m 12,9 km/h (3 Bft) 97,87 %
06.05.2021 06:38 4,9 C 4,4 C 2,8 C 94 % 1008,1 hPa 0,0 l/m 0 min 0 min 20 W/m 12,9 km/h (3 Bft) 97,87 %
06.05.2021 06:40 4,9 C 4,4 C 2,8 C 94 % 1008,1 hPa 0,0 l/m 0 min 0 min 26 W/m 9,7 km/h (2 Bft) 97,87 %
06.05.2021 06:42 4,9 C 4,4 C 2,8 C 94 % 1008,1 hPa 0,0 l/m 0 min 0 min 30 W/m 6,4 km/h (2 Bft) 97,87 %
06.05.2021 06:44 4,9 C 4,4 C 2,8 C 94 % 1008,1 hPa 0,0 l/m 0 min 0 min 34 W/m 6,4 km/h (2 Bft) 97,83 %
06.05.2021 06:46 4,9 C 4,4 C 2,8 C 94 % 1008,1 hPa 0,0 l/m 0 min 0 min 35 W/m 6,4 km/h (2 Bft) 95,74 %
06.05.2021 06:48 4,9 C 4,4 C 2,8 C 94 % 1008,0 hPa 0,0 l/m 0 min 0 min 39 W/m 16,1 km/h (3 Bft) 97,87 %
06.05.2021 06:50 4,9 C 4,4 C 2,8 C 94 % 1008,0 hPa 0,0 l/m 0 min 0 min 40 W/m 6,4 km/h (2 Bft) 97,87 %
06.05.2021 06:52 4,9 C 4,4 C 2,8 C 94 % 1008,0 hPa 0,0 l/m 0 min 0 min 44 W/m 12,9 km/h (3 Bft) 93,62 %
06.05.2021 06:54 4,9 C 4,4 C 2,8 C 94 % 1008,0 hPa 0,0 l/m 0 min 0 min 46 W/m 6,4 km/h (2 Bft) 97,87 %
06.05.2021 06:56 4,9 C 4,4 C 2,8 C 94 % 1008,0 hPa 0,0 l/m 0 min 0 min 48 W/m 3,2 km/h (1 Bft) 97,83 %
06.05.2021 06:58 4,9 C 4,4 C 2,8 C 94 % 1008,0 hPa 0,0 l/m 0 min 0 min 53 W/m 16,1 km/h (3 Bft) 97,87 %
06.05.2021 07:00 4,9 C 4,4 C 2,8 C 94 % 1008,0 hPa 0,0 l/m 0 min 0 min 55 W/m 6,4 km/h (2 Bft) 97,87 %
06.05.2021 07:02 5,0 C 4,4 C 2,8 C 94 % 1008,0 hPa 0,0 l/m 0 min 0 min 57 W/m 6,4 km/h (2 Bft) 97,87 %
06.05.2021 07:04 5,0 C 4,4 C 2,8 C 94 % 1008,0 hPa 0,0 l/m 0 min 0 min 59 W/m 6,4 km/h (2 Bft) 95,74 %
06.05.2021 07:06 5,0 C 4,4 C 2,8 C 94 % 1008,0 hPa 0,0 l/m 0 min 0 min 61 W/m 6,4 km/h (2 Bft) 95,65 %
06.05.2021 07:08 5,0 C 4,4 C 2,8 C 94 % 1008,0 hPa 0,0 l/m 0 min 0 min 63 W/m 6,4 km/h (2 Bft) 97,87 %
06.05.2021 07:10 5,0 C 4,4 C 2,8 C 94 % 1008,0 hPa 0,0 l/m 0 min 0 min 65 W/m 3,2 km/h (1 Bft) 97,87 %
06.05.2021 07:12 5,0 C 4,4 C 2,8 C 94 % 1008,1 hPa 0,0 l/m 0 min 0 min 69 W/m 6,4 km/h (2 Bft) 97,87 %
06.05.2021 07:14 5,0 C 4,4 C 3,4 C 94 % 1008,1 hPa 0,0 l/m 0 min 0 min 72 W/m 6,4 km/h (2 Bft) 93,62 %
06.05.2021 07:16 5,0 C 5,0 C 2,8 C 94 % 1008,1 hPa 0,0 l/m 0 min 0 min 75 W/m 16,1 km/h (3 Bft) 97,87 %
06.05.2021 07:18 5,0 C 5,0 C 2,8 C 94 % 1008,0 hPa 0,0 l/m 0 min 0 min 78 W/m 19,3 km/h (3 Bft) 97,83 %
06.05.2021 07:20 5,0 C 5,0 C 3,4 C 94 % 1008,0 hPa 0,0 l/m 0 min 0 min 79 W/m 6,4 km/h (2 Bft) 93,62 %
06.05.2021 07:22 5,0 C 5,0 C 3,4 C 94 % 1008,1 hPa 0,0 l/m 0 min 0 min 79 W/m 6,4 km/h (2 Bft) 50,00 %
06.05.2021 07:24 5,1 C 5,0 C 3,4 C 95 % 1008,0 hPa 0,0 l/m 0 min 0 min 82 W/m 12,9 km/h (3 Bft) 95,74 %
06.05.2021 07:26 5,1 C 5,0 C 3,4 C 95 % 1008,1 hPa 0,0 l/m 0 min 0 min 87 W/m 9,7 km/h (2 Bft) 93,62 %
06.05.2021 07:28 5,1 C 5,0 C 3,4 C 95 % 1008,0 hPa 0,0 l/m 0 min 0 min 95 W/m 9,7 km/h (2 Bft) 95,74 %
06.05.2021 07:30 5,1 C 5,0 C 3,4 C 95 % 1008,1 hPa 0,0 l/m 0 min 0 min 103 W/m 12,9 km/h (3 Bft) 95,65 %
06.05.2021 07:32 5,1 C 5,0 C 3,4 C 95 % 1008,1 hPa 0,0 l/m 0 min 0 min 100 W/m 9,7 km/h (2 Bft) 93,62 %
06.05.2021 07:34 5,2 C 5,0 C 3,4 C 95 % 1008,1 hPa 0,0 l/m 0 min 0 min 98 W/m 3,2 km/h (1 Bft) 97,87 %
06.05.2021 07:36 5,2 C 5,0 C 3,4 C 95 % 1008,1 hPa 0,0 l/m 0 min 0 min 100 W/m 3,2 km/h (1 Bft) 93,62 %
06.05.2021 07:38 5,3 C 5,0 C 3,4 C 95 % 1008,1 hPa 0,0 l/m 0 min 0 min 100 W/m 9,7 km/h (2 Bft) 95,74 %
06.05.2021 07:40 5,3 C 5,0 C 3,4 C 95 % 1008,1 hPa 0,0 l/m 0 min 0 min 102 W/m 9,7 km/h (2 Bft) 95,74 %
06.05.2021 07:42 5,3 C 5,0 C 3,4 C 94 % 1008,1 hPa 0,0 l/m 0 min 0 min 100 W/m 6,4 km/h (2 Bft) 93,48 %
06.05.2021 07:44 5,3 C 5,6 C 3,4 C 94 % 1008,2 hPa 0,0 l/m 0 min 0 min 98 W/m 3,2 km/h (1 Bft) 93,62 %
06.05.2021 07:46 5,4 C 5,6 C 3,4 C 94 % 1008,2 hPa 0,0 l/m 0 min 0 min 97 W/m 6,4 km/h (2 Bft) 97,87 %
06.05.2021 07:48 5,4 C 5,6 C 3,4 C 94 % 1008,2 hPa 0,0 l/m 0 min 0 min 95 W/m 6,4 km/h (2 Bft) 95,74 %
06.05.2021 07:50 5,4 C 5,6 C 3,4 C 94 % 1008,2 hPa 0,0 l/m 0 min 0 min 106 W/m 3,2 km/h (1 Bft) 95,74 %
06.05.2021 07:52 5,4 C 5,6 C 3,9 C 95 % 1008,3 hPa 0,0 l/m 0 min 0 min 107 W/m 3,2 km/h (1 Bft) 91,49 %
06.05.2021 07:54 5,5 C 5,6 C 3,9 C 95 % 1008,3 hPa 0,0 l/m 0 min 0 min 111 W/m 3,2 km/h (1 Bft) 91,30 %
06.05.2021 07:56 5,5 C 5,6 C 3,9 C 95 % 1008,3 hPa 0,0 l/m 0 min 0 min 131 W/m 3,2 km/h (1 Bft) 93,62 %
06.05.2021 07:58 5,5 C 5,6 C 3,9 C 95 % 1008,3 hPa 0,0 l/m 0 min 0 min 132 W/m 3,2 km/h (1 Bft) 91,49 %
06.05.2021 08:00 5,6 C 5,6 C 3,9 C 95 % 1008,3 hPa 0,0 l/m 0 min 0 min 112 W/m 9,7 km/h (2 Bft) 93,62 %
06.05.2021 08:02 5,6 C 5,6 C 3,9 C 94 % 1008,3 hPa 0,0 l/m 0 min 0 min 107 W/m 3,2 km/h (1 Bft) 93,62 %
06.05.2021 08:04 5,6 C 5,6 C 3,9 C 94 % 1008,3 hPa 0,0 l/m 0 min 0 min 112 W/m 6,4 km/h (2 Bft) 93,48 %
06.05.2021 08:06 5,6 C 5,6 C 3,9 C 94 % 1008,3 hPa 0,0 l/m 0 min 0 min 109 W/m 12,9 km/h (3 Bft) 97,87 %
06.05.2021 08:08 5,6 C 5,6 C 3,9 C 94 % 1008,3 hPa 0,0 l/m 0 min 0 min 134 W/m 16,1 km/h (3 Bft) 97,87 %
06.05.2021 08:10 5,6 C 5,6 C 3,9 C 94 % 1008,4 hPa 0,0 l/m 0 min 0 min 143 W/m 12,9 km/h (3 Bft) 95,74 %
06.05.2021 08:12 5,6 C 5,6 C 3,9 C 94 % 1008,3 hPa 0,0 l/m 0 min 0 min 118 W/m 12,9 km/h (3 Bft) 97,87 %
06.05.2021 08:14 5,6 C 5,6 C 3,9 C 94 % 1008,3 hPa 0,0 l/m 0 min 0 min 125 W/m 12,9 km/h (3 Bft) 95,74 %
06.05.2021 08:16 5,6 C 5,6 C 3,9 C 94 % 1008,3 hPa 0,0 l/m 0 min 0 min 136 W/m 12,9 km/h (3 Bft) 97,83 %
06.05.2021 08:18 5,7 C 6,1 C 3,9 C 94 % 1008,3 hPa 0,0 l/m 0 min 0 min 160 W/m 6,4 km/h (2 Bft) 95,74 %
06.05.2021 08:20 5,8 C 6,1 C 3,9 C 94 % 1008,2 hPa 0,0 l/m 2 min 0 min 185 W/m 12,9 km/h (3 Bft) 97,87 %
06.05.2021 08:22 5,8 C 6,1 C 3,9 C 94 % 1008,3 hPa 0,0 l/m 0 min 0 min 171 W/m 12,9 km/h (3 Bft) 97,87 %
06.05.2021 08:24 5,8 C 6,1 C 4,5 C 94 % 1008,3 hPa 0,0 l/m 2 min 0 min 256 W/m 12,9 km/h (3 Bft) 95,74 %
06.05.2021 08:26 5,8 C 6,1 C 4,5 C 94 % 1008,3 hPa 0,0 l/m 2 min 0 min 192 W/m 6,4 km/h (2 Bft) 95,74 %
06.05.2021 08:28 5,9 C 6,1 C 4,5 C 94 % 1008,3 hPa 0,0 l/m 0 min 0 min 127 W/m 16,1 km/h (3 Bft) 97,83 %
06.05.2021 08:30 5,9 C 6,1 C 4,5 C 94 % 1008,3 hPa 0,0 l/m 0 min 0 min 116 W/m 9,7 km/h (2 Bft) 97,87 %
06.05.2021 08:32 5,9 C 6,1 C 4,5 C 94 % 1008,3 hPa 0,0 l/m 0 min 0 min 108 W/m 3,2 km/h (1 Bft) 94,44 %
06.05.2021 08:34 5,9 C 6,1 C 4,5 C 94 % 1008,3 hPa 0,0 l/m 0 min 0 min 110 W/m 9,7 km/h (2 Bft) 95,74 %
06.05.2021 08:36 5,9 C 6,1 C 3,9 C 94 % 1008,3 hPa 0,0 l/m 0 min 0 min 127 W/m 6,4 km/h (2 Bft) 95,74 %
06.05.2021 08:38 5,9 C 6,1 C 4,5 C 94 % 1008,3 hPa 0,0 l/m 0 min 0 min 149 W/m 12,9 km/h (3 Bft) 100,00 %
06.05.2021 08:40 6,0 C 6,1 C 4,5 C 94 % 1008,3 hPa 0,0 l/m 0 min 0 min 150 W/m 6,4 km/h (2 Bft) 95,65 %
06.05.2021 08:42 6,0 C 6,1 C 4,5 C 94 % 1008,4 hPa 0,0 l/m 0 min 0 min 120 W/m 16,1 km/h (3 Bft) 100,00 %
06.05.2021 08:44 6,0 C 6,1 C 4,5 C 93 % 1008,3 hPa 0,0 l/m 0 min 0 min 143 W/m 6,4 km/h (2 Bft) 100,00 %
06.05.2021 08:46 6,0 C 6,7 C 4,5 C 93 % 1008,3 hPa 0,0 l/m 2 min 0 min 213 W/m 12,9 km/h (3 Bft) 100,00 %
06.05.2021 08:48 6,0 C 7,2 C 4,5 C 93 % 1008,3 hPa 0,0 l/m 2 min 0 min 228 W/m 9,7 km/h (2 Bft) 100,00 %
06.05.2021 08:50 6,1 C 7,2 C 4,5 C 93 % 1008,3 hPa 0,0 l/m 2 min 0 min 228 W/m 12,9 km/h (3 Bft) 100,00 %
06.05.2021 08:52 6,1 C 7,8 C 5,0 C 93 % 1008,3 hPa 0,0 l/m 2 min 0 min 226 W/m 12,9 km/h (3 Bft) 100,00 %
06.05.2021 08:54 6,3 C 7,2 C 4,5 C 93 % 1008,3 hPa 0,0 l/m 2 min 0 min 214 W/m 12,9 km/h (3 Bft) 100,00 %
06.05.2021 08:56 6,3 C 7,8 C 5,0 C 93 % 1008,2 hPa 0,0 l/m 2 min 0 min 239 W/m 6,4 km/h (2 Bft) 97,87 %
06.05.2021 08:58 6,4 C 7,8 C 5,0 C 93 % 1008,2 hPa 0,0 l/m 2 min 0 min 226 W/m 12,9 km/h (3 Bft) 97,87 %
06.05.2021 09:00 6,4 C 7,2 C 5,0 C 93 % 1008,3 hPa 0,0 l/m 0 min 0 min 173 W/m 9,7 km/h (2 Bft) 97,83 %
06.05.2021 09:02 6,4 C 8,9 C 5,6 C 93 % 1008,3 hPa 0,0 l/m 2 min 0 min 358 W/m 12,9 km/h (3 Bft) 100,00 %
06.05.2021 09:04 6,5 C 9,4 C 6,1 C 93 % 1008,3 hPa 0,0 l/m 2 min 0 min 588 W/m 9,7 km/h (2 Bft) 100,00 %
06.05.2021 09:06 6,6 C 10,0 C 6,7 C 93 % 1008,3 hPa 0,0 l/m 2 min 0 min 318 W/m 9,7 km/h (2 Bft) 100,00 %
06.05.2021 09:08 6,8 C 10,0 C 6,7 C 93 % 1008,3 hPa 0,0 l/m 2 min 0 min 438 W/m 12,9 km/h (3 Bft) 100,00 %
06.05.2021 09:10 6,8 C 9,4 C 6,1 C 93 % 1008,2 hPa 0,0 l/m 2 min 0 min 311 W/m 9,7 km/h (2 Bft) 100,00 %
06.05.2021 09:12 6,9 C 8,3 C 5,6 C 92 % 1008,2 hPa 0,0 l/m 0 min 0 min 231 W/m 12,9 km/h (3 Bft) 100,00 %
06.05.2021 09:14 6,9 C 8,3 C 5,6 C 92 % 1008,2 hPa 0,0 l/m 0 min 0 min 208 W/m 9,7 km/h (2 Bft) 97,87 %
06.05.2021 09:16 7,0 C 7,8 C 5,6 C 92 % 1008,2 hPa 0,0 l/m 0 min 0 min 164 W/m 6,4 km/h (2 Bft) 100,00 %
06.05.2021 09:18 7,0 C 7,8 C 5,6 C 92 % 1008,2 hPa 0,0 l/m 0 min 0 min 206 W/m 12,9 km/h (3 Bft) 100,00 %
06.05.2021 09:20 7,0 C 7,8 C 5,6 C 91 % 1008,2 hPa 0,0 l/m 0 min 0 min 221 W/m 12,9 km/h (3 Bft) 100,00 %
06.05.2021 09:22 6,9 C 7,8 C 5,6 C 91 % 1008,3 hPa 0,0 l/m 2 min 0 min 279 W/m 16,1 km/h (3 Bft) 100,00 %
06.05.2021 09:24 6,9 C 7,8 C 5,6 C 90 % 1008,2 hPa 0,0 l/m 0 min 0 min 218 W/m 6,4 km/h (2 Bft) 100,00 %
06.05.2021 09:26 6,9 C 7,8 C 5,6 C 90 % 1008,2 hPa 0,0 l/m 0 min 0 min 164 W/m 6,4 km/h (2 Bft) 97,87 %
06.05.2021 09:28 7,0 C 7,8 C 5,6 C 90 % 1008,2 hPa 0,0 l/m 0 min 0 min 129 W/m 3,2 km/h (1 Bft) 97,87 %
06.05.2021 09:30 7,0 C 7,8 C 5,6 C 90 % 1008,2 hPa 0,0 l/m 0 min 0 min 108 W/m 9,7 km/h (2 Bft) 100,00 %
06.05.2021 09:32 7,0 C 7,2 C 5,6 C 90 % 1008,2 hPa 0,0 l/m 0 min 0 min 106 W/m 6,4 km/h (2 Bft) 100,00 %
06.05.2021 09:34 7,0 C 7,2 C 5,0 C 90 % 1008,2 hPa 0,0 l/m 0 min 0 min 120 W/m 6,4 km/h (2 Bft) 100,00 %
06.05.2021 09:36 7,0 C 7,2 C 5,0 C 90 % 1008,1 hPa 0,0 l/m 0 min 0 min 126 W/m 12,9 km/h (3 Bft) 100,00 %
06.05.2021 09:38 7,0 C 7,2 C 5,0 C 90 % 1008,2 hPa 0,0 l/m 0 min 0 min 120 W/m 9,7 km/h (2 Bft) 100,00 %
06.05.2021 09:40 7,0 C 7,2 C 5,0 C 90 % 1008,1 hPa 0,0 l/m 0 min 0 min 141 W/m 9,7 km/h (2 Bft) 100,00 %
06.05.2021 09:42 7,0 C 7,2 C 5,0 C 90 % 1008,1 hPa 0,0 l/m 0 min 0 min 155 W/m 9,7 km/h (2 Bft) 100,00 %
06.05.2021 09:44 6,9 C 7,2 C 5,0 C 90 % 1008,1 hPa 0,0 l/m 0 min 0 min 161 W/m 6,4 km/h (2 Bft) 100,00 %
06.05.2021 09:46 7,0 C 7,2 C 5,0 C 90 % 1008,1 hPa 0,0 l/m 0 min 0 min 168 W/m 3,2 km/h (1 Bft) 100,00 %
06.05.2021 09:48 7,0 C 7,8 C 5,6 C 90 % 1008,1 hPa 0,0 l/m 0 min 0 min 238 W/m 3,2 km/h (1 Bft) 97,87 %
06.05.2021 09:50 7,0 C 8,3 C 6,1 C 90 % 1008,1 hPa 0,0 l/m 2 min 0 min 427 W/m 3,2 km/h (1 Bft) 100,00 %
06.05.2021 09:52 7,1 C 8,9 C 6,1 C 90 % 1008,1 hPa 0,0 l/m 2 min 0 min 369 W/m 12,9 km/h (3 Bft) 100,00 %
06.05.2021 09:54 7,2 C 9,4 C 6,7 C 90 % 1008,1 hPa 0,0 l/m 2 min 0 min 294 W/m 6,4 km/h (2 Bft) 100,00 %
06.05.2021 09:56 7,4 C 9,4 C 6,7 C 90 % 1008,1 hPa 0,0 l/m 2 min 0 min 378 W/m 6,4 km/h (2 Bft) 100,00 %
06.05.2021 09:58 7,5 C 10,6 C 7,8 C 90 % 1008,1 hPa 0,0 l/m 2 min 0 min 578 W/m 12,9 km/h (3 Bft) 100,00 %
06.05.2021 10:00 7,6 C 11,1 C 8,4 C 89 % 1008,1 hPa 0,0 l/m 2 min 0 min 550 W/m 6,4 km/h (2 Bft) 97,83 %
06.05.2021 10:02 7,8 C 11,7 C 8,9 C 89 % 1008,0 hPa 0,0 l/m 2 min 0 min 544 W/m 9,7 km/h (2 Bft) 100,00 %
06.05.2021 10:04 7,9 C 11,7 C 8,9 C 89 % 1008,0 hPa 0,0 l/m 2 min 0 min 644 W/m 9,7 km/h (2 Bft) 97,87 %
06.05.2021 10:06 8,0 C 10,6 C 7,8 C 88 % 1008,0 hPa 0,0 l/m 2 min 0 min 501 W/m 6,4 km/h (2 Bft) 97,87 %
06.05.2021 10:08 8,0 C 10,0 C 6,7 C 87 % 1008,0 hPa 0,0 l/m 0 min 0 min 203 W/m 9,7 km/h (2 Bft) 97,87 %
06.05.2021 10:10 8,0 C 9,4 C 6,7 C 87 % 1008,1 hPa 0,0 l/m 0 min 0 min 211 W/m 3,2 km/h (1 Bft) 100,00 %
06.05.2021 10:12 8,0 C 9,4 C 6,7 C 86 % 1008,1 hPa 0,0 l/m 0 min 0 min 264 W/m 6,4 km/h (2 Bft) 100,00 %
06.05.2021 10:14 8,0 C 8,9 C 6,7 C 86 % 1008,1 hPa 0,0 l/m 0 min 0 min 277 W/m 6,4 km/h (2 Bft) 97,87 %
06.05.2021 10:16 8,0 C 9,4 C 6,7 C 86 % 1008,0 hPa 0,0 l/m 2 min 0 min 302 W/m 16,1 km/h (3 Bft) 100,00 %
06.05.2021 10:18 8,1 C 10,6 C 8,9 C 86 % 1008,0 hPa 0,0 l/m 2 min 0 min 330 W/m 6,4 km/h (2 Bft) 100,00 %
06.05.2021 10:20 8,2 C 11,1 C 9,5 C 86 % 1008,0 hPa 0,0 l/m 2 min 0 min 330 W/m 6,4 km/h (2 Bft) 100,00 %
06.05.2021 10:22 8,3 C 11,7 C 8,9 C 85 % 1008,0 hPa 0,0 l/m 2 min 0 min 341 W/m 12,9 km/h (3 Bft) 100,00 %
06.05.2021 10:24 8,4 C 10,6 C 8,4 C 85 % 1008,0 hPa 0,0 l/m 2 min 0 min 326 W/m 9,7 km/h (2 Bft) 95,74 %
06.05.2021 10:26 8,4 C 10,0 C 7,8 C 84 % 1008,0 hPa 0,0 l/m 2 min 0 min 370 W/m 6,4 km/h (2 Bft) 100,00 %
06.05.2021 10:28 8,4 C 10,6 C 9,5 C 84 % 1008,0 hPa 0,0 l/m 0 min 0 min 258 W/m 9,7 km/h (2 Bft) 97,87 %
06.05.2021 10:30 8,5 C 11,1 C 10,6 C 84 % 1008,0 hPa 0,0 l/m 2 min 0 min 634 W/m 12,9 km/h (3 Bft) 97,87 %
06.05.2021 10:32 8,5 C 11,7 C 11,1 C 83 % 1008,1 hPa 0,0 l/m 2 min 0 min 732 W/m 12,9 km/h (3 Bft) 97,87 %
06.05.2021 10:34 8,6 C 11,7 C 11,1 C 82 % 1008,1 hPa 0,0 l/m 2 min 0 min 728 W/m 16,1 km/h (3 Bft) 95,65 %
06.05.2021 10:36 8,8 C 12,2 C 11,7 C 82 % 1008,1 hPa 0,0 l/m 2 min 0 min 687 W/m 9,7 km/h (2 Bft) 97,87 %
06.05.2021 10:38 8,9 C 11,7 C 11,7 C 81 % 1008,0 hPa 0,0 l/m 2 min 0 min 690 W/m 12,9 km/h (3 Bft) 97,87 %
06.05.2021 10:40 8,9 C 11,7 C 12,3 C 80 % 1008,0 hPa 0,0 l/m 2 min 0 min 773 W/m 19,3 km/h (3 Bft) 98,00 %
06.05.2021 10:42 9,0 C 11,7 C 11,1 C 80 % 1008,0 hPa 0,0 l/m 2 min 0 min 740 W/m 6,4 km/h (2 Bft) 91,49 %
06.05.2021 10:44 9,1 C 11,1 C 10,6 C 80 % 1008,0 hPa 0,0 l/m 0 min 0 min 282 W/m 12,9 km/h (3 Bft) 87,23 %
06.05.2021 10:46 9,2 C 11,1 C 10,6 C 80 % 1008,0 hPa 0,0 l/m 0 min 0 min 312 W/m 9,7 km/h (2 Bft) 84,78 %
06.05.2021 10:48 9,1 C 10,6 C 11,1 C 79 % 1008,0 hPa 0,0 l/m 0 min 0 min 329 W/m 12,9 km/h (3 Bft) 82,98 %
06.05.2021 10:50 9,1 C 10,0 C 9,5 C 78 % 1007,9 hPa 0,0 l/m 0 min 0 min 232 W/m 16,1 km/h (3 Bft) 93,62 %
06.05.2021 10:52 9,1 C 10,6 C 11,1 C 79 % 1007,9 hPa 0,0 l/m 2 min 0 min 379 W/m 9,7 km/h (2 Bft) 95,74 %
06.05.2021 10:54 9,2 C 11,1 C 11,7 C 80 % 1007,9 hPa 0,0 l/m 2 min 0 min 816 W/m 6,4 km/h (2 Bft) 85,11 %
06.05.2021 10:56 9,3 C 10,6 C 10,6 C 79 % 1007,8 hPa 0,0 l/m 0 min 0 min 165 W/m 12,9 km/h (3 Bft) 93,48 %
06.05.2021 10:58 9,1 C 10,6 C 12,3 C 77 % 1007,7 hPa 0,0 l/m 0 min 0 min 332 W/m 16,1 km/h (3 Bft) 95,74 %
06.05.2021 11:00 9,2 C 11,1 C 13,4 C 78 % 1007,7 hPa 0,0 l/m 2 min 0 min 782 W/m 9,7 km/h (2 Bft) 93,62 %
06.05.2021 11:02 9,2 C 11,7 C 13,4 C 77 % 1007,7 hPa 0,0 l/m 2 min 0 min 714 W/m 16,1 km/h (3 Bft) 95,74 %
06.05.2021 11:04 9,3 C 11,7 C 12,8 C 77 % 1007,7 hPa 0,0 l/m 2 min 0 min 660 W/m 9,7 km/h (2 Bft) 97,87 %
06.05.2021 11:06 9,4 C 11,7 C 12,3 C 78 % 1007,7 hPa 0,0 l/m 2 min 0 min 677 W/m 9,7 km/h (2 Bft) 97,87 %
06.05.2021 11:08 9,5 C 11,7 C 11,1 C 77 % 1007,8 hPa 0,0 l/m 2 min 0 min 669 W/m 12,9 km/h (3 Bft) 89,13 %
06.05.2021 11:10 9,5 C 11,7 C 11,1 C 76 % 1007,7 hPa 0,0 l/m 2 min 0 min 603 W/m 9,7 km/h (2 Bft) 91,49 %
06.05.2021 11:12 9,5 C 11,1 C 10,6 C 76 % 1007,7 hPa 0,0 l/m 2 min 0 min 591 W/m 16,1 km/h (3 Bft) 91,49 %
06.05.2021 11:14 9,5 C 10,6 C 10,0 C 76 % 1007,7 hPa 0,0 l/m 0 min 0 min 296 W/m 6,4 km/h (2 Bft) 95,74 %
06.05.2021 11:16 9,4 C 10,0 C 9,5 C 75 % 1007,8 hPa 0,0 l/m 0 min 0 min 162 W/m 12,9 km/h (3 Bft) 93,62 %
06.05.2021 11:18 9,4 C 10,0 C 8,9 C 76 % 1007,8 hPa 0,0 l/m 0 min 0 min 166 W/m 12,9 km/h (3 Bft) 89,36 %
06.05.2021 11:20 9,3 C 10,6 C 8,9 C 76 % 1007,8 hPa 0,0 l/m 0 min 0 min 300 W/m 16,1 km/h (3 Bft) 89,13 %
06.05.2021 11:22 9,3 C 11,1 C 8,9 C 76 % 1007,8 hPa 0,0 l/m 2 min 0 min 830 W/m 16,1 km/h (3 Bft) 95,74 %
06.05.2021 11:24 9,4 C 12,2 C 9,5 C 76 % 1007,8 hPa 0,0 l/m 2 min 0 min 842 W/m 16,1 km/h (3 Bft) 93,62 %
06.05.2021 11:26 9,5 C 12,8 C 10,6 C 76 % 1007,8 hPa 0,0 l/m 2 min 0 min 826 W/m 12,9 km/h (3 Bft) 95,74 %
06.05.2021 11:28 9,6 C 13,3 C 12,3 C 76 % 1007,8 hPa 0,0 l/m 2 min 0 min 832 W/m 19,3 km/h (3 Bft) 95,74 %
06.05.2021 11:30 9,8 C 13,9 C 13,4 C 75 % 1007,8 hPa 0,0 l/m 2 min 0 min 853 W/m 16,1 km/h (3 Bft) 93,62 %
06.05.2021 11:32 10,0 C 13,9 C 13,4 C 75 % 1007,7 hPa 0,0 l/m 2 min 0 min 848 W/m 19,3 km/h (3 Bft) 95,65 %
06.05.2021 11:34 10,1 C 13,9 C 13,4 C 73 % 1007,7 hPa 0,0 l/m 2 min 0 min 870 W/m 16,1 km/h (3 Bft) 87,23 %
06.05.2021 11:36 10,3 C 13,9 C 13,9 C 73 % 1007,7 hPa 0,0 l/m 2 min 0 min 863 W/m 12,9 km/h (3 Bft) 74,47 %
06.05.2021 11:38 10,4 C 13,9 C 13,9 C 71 % 1007,6 hPa 0,0 l/m 2 min 0 min 859 W/m 19,3 km/h (3 Bft) 89,36 %
06.05.2021 11:40 10,5 C 13,3 C 12,8 C 71 % 1007,7 hPa 0,0 l/m 2 min 0 min 875 W/m 12,9 km/h (3 Bft) 76,60 %
06.05.2021 11:42 10,6 C 13,9 C 12,3 C 72 % 1007,6 hPa 0,0 l/m 2 min 0 min 864 W/m 9,7 km/h (2 Bft) 74,47 %
06.05.2021 11:44 10,7 C 13,3 C 11,7 C 71 % 1007,6 hPa 0,0 l/m 2 min 0 min 863 W/m 9,7 km/h (2 Bft) 82,61 %
06.05.2021 11:46 10,6 C 12,2 C 11,1 C 70 % 1007,6 hPa 0,0 l/m 2 min 0 min 627 W/m 16,1 km/h (3 Bft) 74,47 %
06.05.2021 11:48 10,5 C 11,7 C 10,6 C 70 % 1007,6 hPa 0,0 l/m 0 min 0 min 212 W/m 9,7 km/h (2 Bft) 89,36 %
06.05.2021 11:50 10,4 C 11,1 C 10,0 C 70 % 1007,6 hPa 0,0 l/m 0 min 0 min 194 W/m 6,4 km/h (2 Bft) 93,62 %
06.05.2021 11:52 10,3 C 11,1 C 9,5 C 70 % 1007,5 hPa 0,0 l/m 0 min 0 min 217 W/m 6,4 km/h (2 Bft) 93,62 %
06.05.2021 11:54 10,2 C 11,7 C 11,1 C 70 % 1007,5 hPa 0,0 l/m 2 min 0 min 559 W/m 6,4 km/h (2 Bft) 95,65 %
06.05.2021 11:56 10,3 C 12,2 C 11,1 C 70 % 1007,5 hPa 0,0 l/m 2 min 0 min 833 W/m 16,1 km/h (3 Bft) 95,74 %
06.05.2021 11:58 10,3 C 13,3 C 12,8 C 71 % 1007,5 hPa 0,0 l/m 2 min 0 min 860 W/m 6,4 km/h (2 Bft) 97,87 %
06.05.2021 12:00 10,5 C 14,4 C 14,5 C 72 % 1007,5 hPa 0,0 l/m 2 min 0 min 888 W/m 3,2 km/h (1 Bft) 97,87 %
06.05.2021 12:02 10,6 C 14,4 C 15,0 C 71 % 1007,5 hPa 0,0 l/m 2 min 0 min 854 W/m 12,9 km/h (3 Bft) 91,49 %
06.05.2021 12:04 10,9 C 14,4 C 16,7 C 70 % 1007,6 hPa 0,0 l/m 2 min 0 min 934 W/m 19,3 km/h (3 Bft) 95,74 %
06.05.2021 12:08 11,0 C 15,0 C 19,5 C 68 % 1007,5 hPa 0,0 l/m 4 min 0 min 940 W/m 12,9 km/h (3 Bft) 95,74 %
06.05.2021 12:10 11,1 C 15,0 C 19,5 C 68 % 1007,4 hPa 0,0 l/m 2 min 0 min 890 W/m 12,9 km/h (3 Bft) 93,62 %
06.05.2021 12:12 11,2 C 15,0 C 19,5 C 67 % 1007,4 hPa 0,0 l/m 2 min 0 min 883 W/m 9,7 km/h (2 Bft) 97,87 %
06.05.2021 12:14 11,3 C 14,4 C 19,5 C 66 % 1007,3 hPa 0,0 l/m 2 min 0 min 912 W/m 12,9 km/h (3 Bft) 97,87 %
06.05.2021 12:16 11,3 C 14,4 C 20,0 C 66 % 1007,3 hPa 0,0 l/m 2 min 0 min 983 W/m 6,4 km/h (2 Bft) 95,74 %
06.05.2021 12:18 11,4 C 15,0 C 20,0 C 66 % 1007,3 hPa 0,0 l/m 2 min 0 min 972 W/m 16,1 km/h (3 Bft) 97,83 %
06.05.2021 12:20 11,6 C 15,6 C 21,1 C 67 % 1007,3 hPa 0,0 l/m 2 min 0 min 953 W/m 6,4 km/h (2 Bft) 97,87 %
06.05.2021 12:22 11,7 C 15,6 C 21,1 C 66 % 1007,2 hPa 0,0 l/m 2 min 0 min 978 W/m 16,1 km/h (3 Bft) 97,87 %
06.05.2021 12:24 11,9 C 16,1 C 21,1 C 66 % 1007,2 hPa 0,0 l/m 2 min 0 min 941 W/m 12,9 km/h (3 Bft) 97,87 %
06.05.2021 12:26 12,0 C 16,1 C 21,7 C 66 % 1007,2 hPa 0,0 l/m 2 min 0 min 1042 W/m 12,9 km/h (3 Bft) 97,14 %
06.05.2021 12:28 12,1 C 16,7 C 22,8 C 66 % 1007,1 hPa 0,0 l/m 2 min 0 min 1095 W/m 6,4 km/h (2 Bft) 97,87 %
06.05.2021 12:30 12,3 C 15,6 C 20,6 C 64 % 1007,1 hPa 0,0 l/m 2 min 0 min 806 W/m 12,9 km/h (3 Bft) 95,74 %
06.05.2021 12:32 12,2 C 14,4 C 18,4 C 63 % 1007,1 hPa 0,0 l/m 2 min 0 min 486 W/m 6,4 km/h (2 Bft) 97,92 %
06.05.2021 12:34 12,1 C 13,9 C 15,6 C 63 % 1007,1 hPa 0,0 l/m 0 min 0 min 274 W/m 6,4 km/h (2 Bft) 97,87 %
06.05.2021 12:36 12,0 C 13,3 C 13,9 C 63 % 1007,1 hPa 0,0 l/m 0 min 0 min 309 W/m 6,4 km/h (2 Bft) 95,74 %
06.05.2021 12:38 11,9 C 13,3 C 13,9 C 65 % 1007,1 hPa 0,0 l/m 0 min 2 min 348 W/m 12,9 km/h (3 Bft) 97,87 %
06.05.2021 12:40 12,0 C 13,3 C 13,9 C 66 % 1007,1 hPa 0,0 l/m 2 min 0 min 396 W/m 6,4 km/h (2 Bft) 97,87 %
06.05.2021 12:42 11,9 C 12,8 C 12,8 C 66 % 1007,0 hPa 0,0 l/m 0 min 0 min 331 W/m 12,9 km/h (3 Bft) 95,74 %
06.05.2021 12:44 11,8 C 12,2 C 12,3 C 64 % 1007,0 hPa 0,0 l/m 0 min 0 min 278 W/m 9,7 km/h (2 Bft) 97,83 %
06.05.2021 12:46 11,6 C 11,7 C 11,1 C 63 % 1007,0 hPa 0,0 l/m 0 min 0 min 199 W/m 9,7 km/h (2 Bft) 95,74 %
06.05.2021 12:48 11,4 C 11,7 C 10,6 C 63 % 1007,0 hPa 0,0 l/m 0 min 0 min 176 W/m 12,9 km/h (3 Bft) 91,49 %
06.05.2021 12:50 11,3 C 11,7 C 10,6 C 65 % 1006,9 hPa 0,0 l/m 0 min 0 min 162 W/m 3,2 km/h (1 Bft) 95,74 %
06.05.2021 12:52 11,1 C 11,1 C 10,0 C 65 % 1007,0 hPa 0,0 l/m 0 min 0 min 147 W/m 9,7 km/h (2 Bft) 93,62 %
06.05.2021 12:54 11,0 C 11,1 C 9,5 C 65 % 1007,0 hPa 0,0 l/m 0 min 0 min 139 W/m 3,2 km/h (1 Bft) 95,74 %
06.05.2021 12:56 10,9 C 11,1 C 9,5 C 67 % 1007,0 hPa 0,0 l/m 0 min 2 min 135 W/m 3,2 km/h (1 Bft) 95,65 %
06.05.2021 12:58 10,9 C 11,1 C 8,4 C 68 % 1007,0 hPa 0,0 l/m 0 min 2 min 140 W/m 9,7 km/h (2 Bft) 95,74 %
06.05.2021 13:00 10,7 C 10,6 C 7,8 C 69 % 1007,0 hPa 0,0 l/m 0 min 2 min 154 W/m 6,4 km/h (2 Bft) 95,74 %
06.05.2021 13:02 10,6 C 10,6 C 7,3 C 71 % 1006,9 hPa 0,0 l/m 0 min 2 min 174 W/m 3,2 km/h (1 Bft) 95,74 %
06.05.2021 13:04 10,5 C 10,6 C 7,3 C 72 % 1006,9 hPa 0,0 l/m 0 min 2 min 206 W/m 6,4 km/h (2 Bft) 93,62 %
06.05.2021 13:06 10,5 C 11,7 C 8,9 C 71 % 1006,9 hPa 0,0 l/m 0 min 0 min 316 W/m 3,2 km/h (1 Bft) 95,65 %
06.05.2021 13:08 10,6 C 12,2 C 10,6 C 73 % 1006,9 hPa 0,0 l/m 2 min 0 min 607 W/m 6,4 km/h (2 Bft) 93,62 %
06.05.2021 13:10 10,8 C 12,8 C 11,1 C 73 % 1006,9 hPa 0,0 l/m 2 min 0 min 682 W/m 3,2 km/h (1 Bft) 96,30 %
06.05.2021 13:12 10,8 C 12,2 C 10,6 C 71 % 1006,8 hPa 0,0 l/m 0 min 0 min 286 W/m 6,4 km/h (2 Bft) 95,74 %
06.05.2021 13:14 10,6 C 11,7 C 9,5 C 68 % 1006,8 hPa 0,0 l/m 0 min 0 min 279 W/m 6,4 km/h (2 Bft) 93,62 %
06.05.2021 13:16 10,6 C 11,7 C 9,5 C 69 % 1006,8 hPa 0,0 l/m 0 min 0 min 281 W/m 3,2 km/h (1 Bft) 95,65 %
06.05.2021 13:18 10,6 C 11,7 C 8,9 C 69 % 1006,8 hPa 0,0 l/m 0 min 0 min 292 W/m 6,4 km/h (2 Bft) 95,74 %
06.05.2021 13:20 10,6 C 11,7 C 8,9 C 68 % 1006,7 hPa 0,0 l/m 0 min 0 min 288 W/m 3,2 km/h (1 Bft) 93,62 %
06.05.2021 13:22 10,6 C 12,2 C 8,9 C 69 % 1006,7 hPa 0,0 l/m 0 min 0 min 270 W/m 3,2 km/h (1 Bft) 93,62 %
06.05.2021 13:24 10,7 C 12,2 C 8,9 C 69 % 1006,7 hPa 0,0 l/m 0 min 0 min 257 W/m 3,2 km/h (1 Bft) 95,74 %
06.05.2021 13:26 10,6 C 11,7 C 8,9 C 67 % 1006,6 hPa 0,0 l/m 0 min 2 min 247 W/m 3,2 km/h (1 Bft) 93,62 %
06.05.2021 13:28 10,7 C 12,2 C 8,9 C 68 % 1006,5 hPa 0,0 l/m 0 min 2 min 241 W/m 3,2 km/h (1 Bft) 95,65 %
06.05.2021 13:30 10,8 C 12,2 C 8,9 C 68 % 1006,5 hPa 0,0 l/m 0 min 0 min 228 W/m 3,2 km/h (1 Bft) 95,74 %
06.05.2021 13:32 10,8 C 12,2 C 8,9 C 69 % 1006,5 hPa 0,0 l/m 0 min 0 min 213 W/m 3,2 km/h (1 Bft) 95,74 %
06.05.2021 13:34 10,9 C 12,8 C 8,9 C 69 % 1006,5 hPa 0,0 l/m 0 min 0 min 214 W/m 3,2 km/h (1 Bft) 97,87 %
06.05.2021 13:36 10,9 C 12,2 C 9,5 C 68 % 1006,5 hPa 0,0 l/m 0 min 0 min 246 W/m 3,2 km/h (1 Bft) 97,87 %
06.05.2021 13:38 10,9 C 12,8 C 9,5 C 67 % 1006,4 hPa 0,0 l/m 0 min 2 min 327 W/m 6,4 km/h (2 Bft) 97,87 %
06.05.2021 13:40 10,9 C 13,3 C 10,6 C 69 % 1006,4 hPa 0,0 l/m 2 min 2 min 432 W/m 9,7 km/h (2 Bft) 97,83 %
06.05.2021 13:42 11,0 C 12,8 C 10,6 C 69 % 1006,4 hPa 0,0 l/m 2 min 0 min 432 W/m 12,9 km/h (3 Bft) 97,87 %
06.05.2021 13:44 11,0 C 13,3 C 10,6 C 69 % 1006,4 hPa 0,0 l/m 2 min 0 min 487 W/m 6,4 km/h (2 Bft) 93,62 %
06.05.2021 13:46 11,0 C 13,3 C 11,1 C 69 % 1006,4 hPa 0,0 l/m 2 min 0 min 487 W/m 3,2 km/h (1 Bft) 97,87 %
06.05.2021 13:48 11,0 C 12,8 C 10,6 C 67 % 1006,3 hPa 0,0 l/m 2 min 0 min 453 W/m 3,2 km/h (1 Bft) 100,00 %
06.05.2021 13:50 11,0 C 12,8 C 10,6 C 66 % 1006,3 hPa 0,0 l/m 0 min 0 min 384 W/m 3,2 km/h (1 Bft) 100,00 %
06.05.2021 13:52 11,0 C 12,8 C 10,6 C 65 % 1006,3 hPa 0,0 l/m 2 min 0 min 426 W/m 3,2 km/h (1 Bft) 100,00 %
06.05.2021 13:54 11,0 C 12,2 C 10,6 C 65 % 1006,2 hPa 0,0 l/m 0 min 0 min 389 W/m 3,2 km/h (1 Bft) 100,00 %
06.05.2021 13:56 11,1 C 12,2 C 10,0 C 66 % 1006,1 hPa 0,0 l/m 0 min 0 min 366 W/m 3,2 km/h (1 Bft) 97,87 %
06.05.2021 13:58 11,1 C 12,2 C 10,0 C 65 % 1006,1 hPa 0,0 l/m 0 min 0 min 382 W/m 3,2 km/h (1 Bft) 100,00 %
06.05.2021 14:00 11,1 C 12,2 C 10,0 C 65 % 1006,1 hPa 0,0 l/m 0 min 0 min 369 W/m 3,2 km/h (1 Bft) 100,00 %
06.05.2021 14:02 11,2 C 12,2 C 10,0 C 65 % 1006,0 hPa 0,0 l/m 0 min 0 min 318 W/m 6,4 km/h (2 Bft) 97,87 %
06.05.2021 14:04 11,2 C 12,2 C 10,0 C 65 % 1006,0 hPa 0,0 l/m 0 min 0 min 294 W/m 6,4 km/h (2 Bft) 100,00 %
06.05.2021 14:06 11,3 C 12,2 C 10,0 C 65 % 1006,0 hPa 0,0 l/m 0 min 0 min 294 W/m 3,2 km/h (1 Bft) 100,00 %
06.05.2021 14:08 11,3 C 12,2 C 10,0 C 63 % 1005,9 hPa 0,0 l/m 0 min 0 min 308 W/m 9,7 km/h (2 Bft) 100,00 %
06.05.2021 14:10 11,3 C 12,2 C 10,0 C 62 % 1006,0 hPa 0,0 l/m 0 min 0 min 352 W/m 6,4 km/h (2 Bft) 97,87 %
06.05.2021 14:12 11,3 C 12,8 C 10,0 C 62 % 1006,0 hPa 0,0 l/m 2 min 0 min 468 W/m 3,2 km/h (1 Bft) 95,74 %
06.05.2021 14:14 11,3 C 12,8 C 10,6 C 61 % 1006,0 hPa 0,0 l/m 2 min 0 min 525 W/m 12,9 km/h (3 Bft) 100,00 %
06.05.2021 14:16 11,3 C 13,3 C 10,6 C 61 % 1005,9 hPa 0,0 l/m 2 min 0 min 538 W/m 3,2 km/h (1 Bft) 97,83 %
06.05.2021 14:18 11,4 C 13,9 C 10,6 C 62 % 1005,9 hPa 0,0 l/m 2 min 0 min 529 W/m 16,1 km/h (3 Bft) 97,87 %
06.05.2021 14:20 11,5 C 13,9 C 10,6 C 62 % 1005,9 hPa 0,0 l/m 2 min 0 min 529 W/m 9,7 km/h (2 Bft) 97,87 %
06.05.2021 14:22 11,6 C 13,9 C 11,1 C 62 % 1005,8 hPa 0,0 l/m 2 min 0 min 556 W/m 6,4 km/h (2 Bft) 97,37 %
06.05.2021 14:24 11,8 C 14,4 C 11,1 C 62 % 1005,8 hPa 0,0 l/m 2 min 0 min 546 W/m 6,4 km/h (2 Bft) 96,55 %
06.05.2021 14:26 11,9 C 14,4 C 11,1 C 62 % 1005,8 hPa 0,0 l/m 2 min 0 min 504 W/m 6,4 km/h (2 Bft) 97,83 %
06.05.2021 14:28 11,9 C 14,4 C 11,1 C 61 % 1005,7 hPa 0,0 l/m 2 min 0 min 484 W/m 3,2 km/h (1 Bft) 97,37 %
06.05.2021 14:30 12,0 C 14,4 C 11,1 C 62 % 1005,7 hPa 0,0 l/m 2 min 0 min 450 W/m 6,4 km/h (2 Bft) 97,87 %
06.05.2021 14:32 12,0 C 13,9 C 11,1 C 60 % 1005,7 hPa 0,0 l/m 0 min 0 min 378 W/m 9,7 km/h (2 Bft) 94,64 %
06.05.2021 14:34 12,0 C 13,9 C 11,1 C 60 % 1005,6 hPa 0,0 l/m 0 min 0 min 371 W/m 19,3 km/h (3 Bft) 94,74 %
06.05.2021 14:36 12,0 C 13,9 C 10,6 C 59 % 1005,6 hPa 0,0 l/m 0 min 0 min 373 W/m 12,9 km/h (3 Bft) 95,74 %
06.05.2021 14:38 12,1 C 14,4 C 10,6 C 59 % 1005,6 hPa 0,0 l/m 2 min 0 min 688 W/m 6,4 km/h (2 Bft) 98,18 %
06.05.2021 14:40 12,3 C 15,0 C 10,6 C 58 % 1005,5 hPa 0,0 l/m 2 min 0 min 745 W/m 9,7 km/h (2 Bft) 97,87 %
06.05.2021 14:42 12,4 C 15,6 C 11,1 C 59 % 1005,6 hPa 0,0 l/m 2 min 0 min 817 W/m 6,4 km/h (2 Bft) 97,37 %
06.05.2021 14:44 12,6 C 16,1 C 11,1 C 58 % 1005,6 hPa 0,0 l/m 2 min 0 min 859 W/m 6,4 km/h (2 Bft) 98,00 %
06.05.2021 14:46 12,8 C 16,1 C 11,7 C 59 % 1005,5 hPa 0,0 l/m 2 min 0 min 791 W/m 12,9 km/h (3 Bft) 89,36 %
06.05.2021 14:48 12,9 C 16,1 C 11,1 C 57 % 1005,5 hPa 0,0 l/m 2 min 0 min 789 W/m 9,7 km/h (2 Bft) 93,62 %
06.05.2021 14:50 13,0 C 16,1 C 11,1 C 57 % 1005,5 hPa 0,0 l/m 2 min 0 min 766 W/m 6,4 km/h (2 Bft) 97,73 %
06.05.2021 14:52 13,1 C 15,6 C 11,1 C 58 % 1005,4 hPa 0,0 l/m 2 min 0 min 414 W/m 3,2 km/h (1 Bft) 95,92 %
06.05.2021 14:54 13,2 C 14,4 C 11,1 C 56 % 1005,4 hPa 0,0 l/m 0 min 0 min 322 W/m 9,7 km/h (2 Bft) 97,87 %
06.05.2021 14:56 13,2 C 14,4 C 10,6 C 55 % 1005,4 hPa 0,0 l/m 0 min 0 min 322 W/m 9,7 km/h (2 Bft) 95,74 %
06.05.2021 14:58 13,2 C 14,4 C 10,6 C 55 % 1005,4 hPa 0,0 l/m 2 min 0 min 382 W/m 3,2 km/h (1 Bft) 94,74 %
06.05.2021 15:00 13,3 C 15,0 C 10,6 C 57 % 1005,3 hPa 0,0 l/m 2 min 0 min 627 W/m 6,4 km/h (2 Bft) 98,21 %
06.05.2021 15:02 13,3 C 15,6 C 11,1 C 56 % 1005,2 hPa 0,0 l/m 2 min 0 min 729 W/m 16,1 km/h (3 Bft) 95,92 %
06.05.2021 15:04 13,4 C 15,6 C 11,1 C 56 % 1005,2 hPa 0,0 l/m 2 min 0 min 804 W/m 9,7 km/h (2 Bft) 97,44 %
06.05.2021 15:06 13,4 C 16,1 C 11,1 C 54 % 1005,2 hPa 0,0 l/m 2 min 0 min 755 W/m 6,4 km/h (2 Bft) 100,00 %
06.05.2021 15:08 13,5 C 16,7 C 11,1 C 54 % 1005,1 hPa 0,0 l/m 2 min 0 min 691 W/m 9,7 km/h (2 Bft) 97,87 %
06.05.2021 15:10 13,6 C 16,7 C 11,1 C 54 % 1005,1 hPa 0,0 l/m 2 min 0 min 677 W/m 9,7 km/h (2 Bft) 97,87 %
06.05.2021 15:12 13,7 C 16,7 C 11,1 C 54 % 1005,0 hPa 0,0 l/m 2 min 0 min 675 W/m 3,2 km/h (1 Bft) 98,21 %
06.05.2021 15:14 13,8 C 16,7 C 11,1 C 55 % 1005,0 hPa 0,0 l/m 2 min 0 min 489 W/m 12,9 km/h (3 Bft) 97,96 %
06.05.2021 15:16 13,9 C 16,1 C 11,1 C 55 % 1005,0 hPa 0,0 l/m 2 min 0 min 614 W/m 12,9 km/h (3 Bft) 94,74 %
06.05.2021 15:18 14,0 C 15,6 C 11,1 C 54 % 1004,9 hPa 0,0 l/m 2 min 0 min 619 W/m 6,4 km/h (2 Bft) 98,00 %
06.05.2021 15:20 14,0 C 16,1 C 11,1 C 54 % 1005,0 hPa 0,0 l/m 2 min 0 min 631 W/m 9,7 km/h (2 Bft) 93,62 %
06.05.2021 15:22 13,9 C 15,6 C 11,1 C 52 % 1005,0 hPa 0,0 l/m 2 min 0 min 423 W/m 19,3 km/h (3 Bft) 95,74 %
06.05.2021 15:24 13,8 C 15,0 C 11,1 C 51 % 1005,0 hPa 0,0 l/m 0 min 0 min 340 W/m 16,1 km/h (3 Bft) 97,73 %
06.05.2021 15:26 13,7 C 15,0 C 11,1 C 52 % 1004,9 hPa 0,0 l/m 0 min 0 min 360 W/m 9,7 km/h (2 Bft) 97,96 %
06.05.2021 15:28 13,6 C 16,1 C 11,1 C 51 % 1004,9 hPa 0,0 l/m 2 min 0 min 510 W/m 3,2 km/h (1 Bft) 97,87 %
06.05.2021 15:30 13,7 C 16,7 C 11,1 C 51 % 1004,9 hPa 0,0 l/m 2 min 0 min 717 W/m 6,4 km/h (2 Bft) 97,73 %
06.05.2021 15:32 13,8 C 16,7 C 11,1 C 52 % 1004,8 hPa 0,0 l/m 2 min 0 min 570 W/m 6,4 km/h (2 Bft) 98,00 %
06.05.2021 15:34 13,9 C 17,2 C 11,1 C 53 % 1004,8 hPa 0,0 l/m 2 min 0 min 570 W/m 6,4 km/h (2 Bft) 97,87 %
06.05.2021 15:36 13,9 C 16,7 C 11,1 C 52 % 1004,9 hPa 0,0 l/m 2 min 0 min 567 W/m 6,4 km/h (2 Bft) 97,73 %
06.05.2021 15:38 14,0 C 16,7 C 11,1 C 52 % 1004,8 hPa 0,0 l/m 2 min 0 min 529 W/m 9,7 km/h (2 Bft) 97,83 %
06.05.2021 15:40 14,0 C 16,1 C 11,7 C 52 % 1004,8 hPa 0,0 l/m 2 min 0 min 509 W/m 12,9 km/h (3 Bft) 95,74 %
06.05.2021 15:42 13,9 C 15,6 C 11,7 C 51 % 1004,8 hPa 0,0 l/m 2 min 0 min 507 W/m 9,7 km/h (2 Bft) 98,00 %
06.05.2021 15:44 13,8 C 15,6 C 11,7 C 52 % 1004,8 hPa 0,0 l/m 2 min 0 min 455 W/m 6,4 km/h (2 Bft) 97,87 %
06.05.2021 15:46 13,9 C 15,6 C 11,7 C 54 % 1004,8 hPa 0,0 l/m 2 min 0 min 443 W/m 9,7 km/h (2 Bft) 98,11 %
06.05.2021 15:48 13,9 C 15,0 C 11,7 C 53 % 1004,7 hPa 0,0 l/m 2 min 0 min 406 W/m 9,7 km/h (2 Bft) 97,37 %
06.05.2021 15:50 13,9 C 15,0 C 11,1 C 51 % 1004,7 hPa 0,0 l/m 2 min 0 min 362 W/m 9,7 km/h (2 Bft) 97,83 %
06.05.2021 15:52 13,9 C 14,4 C 11,1 C 51 % 1004,7 hPa 0,0 l/m 0 min 0 min 344 W/m 6,4 km/h (2 Bft) 98,00 %
06.05.2021 15:54 13,8 C 14,4 C 11,1 C 51 % 1004,6 hPa 0,0 l/m 0 min 0 min 336 W/m 6,4 km/h (2 Bft) 97,87 %
06.05.2021 15:56 13,8 C 14,4 C 11,1 C 52 % 1004,6 hPa 0,0 l/m 0 min 0 min 327 W/m 6,4 km/h (2 Bft) 97,73 %
06.05.2021 15:58 13,7 C 13,9 C 11,1 C 51 % 1004,5 hPa 0,0 l/m 0 min 0 min 328 W/m 3,2 km/h (1 Bft) 100,00 %
06.05.2021 16:00 13,6 C 13,9 C 10,6 C 52 % 1004,6 hPa 0,0 l/m 0 min 0 min 307 W/m 12,9 km/h (3 Bft) 100,00 %
06.05.2021 16:02 13,5 C 13,9 C 10,6 C 51 % 1004,6 hPa 0,0 l/m 0 min 0 min 294 W/m 6,4 km/h (2 Bft) 100,00 %
06.05.2021 16:04 13,5 C 13,9 C 10,6 C 53 % 1004,5 hPa 0,0 l/m 0 min 0 min 290 W/m 6,4 km/h (2 Bft) 97,56 %
06.05.2021 16:06 13,4 C 13,3 C 10,6 C 52 % 1004,5 hPa 0,0 l/m 0 min 0 min 287 W/m 6,4 km/h (2 Bft) 100,00 %
06.05.2021 16:08 13,4 C 13,9 C 10,6 C 54 % 1004,5 hPa 0,0 l/m 0 min 0 min 274 W/m 12,9 km/h (3 Bft) 100,00 %
06.05.2021 16:10 13,4 C 13,9 C 10,6 C 53 % 1004,5 hPa 0,0 l/m 0 min 0 min 269 W/m 9,7 km/h (2 Bft) 100,00 %
06.05.2021 16:12 13,4 C 13,9 C 10,6 C 53 % 1004,4 hPa 0,0 l/m 0 min 0 min 271 W/m 6,4 km/h (2 Bft) 100,00 %
06.05.2021 16:14 13,4 C 13,9 C 10,6 C 53 % 1004,4 hPa 0,0 l/m 0 min 0 min 268 W/m 12,9 km/h (3 Bft) 100,00 %
06.05.2021 16:16 13,3 C 13,3 C 10,6 C 52 % 1004,4 hPa 0,0 l/m 0 min 0 min 255 W/m 9,7 km/h (2 Bft) 100,00 %
06.05.2021 16:18 13,1 C 12,8 C 10,6 C 51 % 1004,4 hPa 0,0 l/m 0 min 0 min 245 W/m 6,4 km/h (2 Bft) 100,00 %
06.05.2021 16:20 13,1 C 12,8 C 10,6 C 52 % 1004,4 hPa 0,0 l/m 0 min 0 min 238 W/m 12,9 km/h (3 Bft) 91,43 %
06.05.2021 16:22 13,0 C 12,8 C 10,6 C 51 % 1004,4 hPa 0,0 l/m 0 min 0 min 241 W/m 9,7 km/h (2 Bft) 80,85 %
06.05.2021 16:24 13,0 C 12,8 C 10,6 C 52 % 1004,3 hPa 0,0 l/m 0 min 0 min 253 W/m 29,0 km/h (5 Bft) 100,00 %
06.05.2021 16:26 12,9 C 12,8 C 10,6 C 51 % 1004,4 hPa 0,0 l/m 0 min 0 min 259 W/m 29,0 km/h (5 Bft) 100,00 %
06.05.2021 16:28 12,8 C 12,8 C 10,6 C 52 % 1004,3 hPa 0,0 l/m 0 min 0 min 244 W/m 12,9 km/h (3 Bft) 97,14 %
06.05.2021 16:30 12,8 C 12,8 C 10,6 C 52 % 1004,3 hPa 0,0 l/m 0 min 0 min 219 W/m 16,1 km/h (3 Bft) 100,00 %
06.05.2021 16:32 12,7 C 12,8 C 10,6 C 52 % 1004,3 hPa 0,0 l/m 0 min 0 min 207 W/m 19,3 km/h (3 Bft) 95,65 %
06.05.2021 16:34 12,7 C 12,8 C 10,6 C 52 % 1004,3 hPa 0,0 l/m 0 min 0 min 212 W/m 19,3 km/h (3 Bft) 97,56 %
06.05.2021 16:36 12,7 C 12,8 C 10,6 C 52 % 1004,3 hPa 0,0 l/m 0 min 0 min 220 W/m 22,5 km/h (4 Bft) 97,96 %
06.05.2021 16:38 12,6 C 12,2 C 10,6 C 52 % 1004,3 hPa 0,0 l/m 0 min 0 min 225 W/m 19,3 km/h (3 Bft) 98,00 %
06.05.2021 16:40 12,5 C 12,2 C 10,0 C 53 % 1004,3 hPa 0,0 l/m 0 min 0 min 220 W/m 16,1 km/h (3 Bft) 100,00 %
06.05.2021 16:42 12,5 C 12,2 C 10,0 C 52 % 1004,4 hPa 0,0 l/m 0 min 0 min 213 W/m 19,3 km/h (3 Bft) 100,00 %
06.05.2021 16:44 12,4 C 12,2 C 10,0 C 53 % 1004,4 hPa 0,0 l/m 0 min 0 min 204 W/m 19,3 km/h (3 Bft) 100,00 %
06.05.2021 16:46 12,4 C 12,2 C 10,0 C 53 % 1004,3 hPa 0,0 l/m 0 min 0 min 200 W/m 19,3 km/h (3 Bft) 98,00 %
06.05.2021 16:48 12,4 C 12,2 C 10,0 C 53 % 1004,4 hPa 0,0 l/m 0 min 0 min 200 W/m 19,3 km/h (3 Bft) 100,00 %
06.05.2021 16:50 12,4 C 12,2 C 10,0 C 54 % 1004,3 hPa 0,0 l/m 0 min 0 min 201 W/m 19,3 km/h (3 Bft) 98,18 %
06.05.2021 16:52 12,3 C 12,2 C 10,0 C 53 % 1004,4 hPa 0,0 l/m 0 min 0 min 196 W/m 22,5 km/h (4 Bft) 96,00 %
06.05.2021 16:54 12,2 C 12,2 C 9,5 C 52 % 1004,5 hPa 0,0 l/m 0 min 0 min 195 W/m 19,3 km/h (3 Bft) 97,87 %
06.05.2021 16:56 12,1 C 12,2 C 9,5 C 52 % 1004,4 hPa 0,0 l/m 0 min 0 min 198 W/m 16,1 km/h (3 Bft) 97,87 %
06.05.2021 16:58 12,1 C 11,7 C 9,5 C 53 % 1004,4 hPa 0,0 l/m 0 min 0 min 203 W/m 16,1 km/h (3 Bft) 97,83 %
06.05.2021 17:00 12,1 C 12,2 C 9,5 C 53 % 1004,4 hPa 0,0 l/m 0 min 0 min 202 W/m 6,4 km/h (2 Bft) 97,22 %
06.05.2021 17:02 12,1 C 12,2 C 9,5 C 54 % 1004,4 hPa 0,0 l/m 0 min 0 min 200 W/m 12,9 km/h (3 Bft) 97,96 %
06.05.2021 17:04 12,1 C 12,2 C 10,0 C 56 % 1004,3 hPa 0,0 l/m 0 min 0 min 199 W/m 9,7 km/h (2 Bft) 97,87 %
06.05.2021 17:06 12,1 C 12,2 C 9,5 C 56 % 1004,4 hPa 0,0 l/m 0 min 0 min 191 W/m 6,4 km/h (2 Bft) 96,43 %
06.05.2021 17:08 12,1 C 12,2 C 9,5 C 54 % 1004,3 hPa 0,0 l/m 0 min 0 min 185 W/m 9,7 km/h (2 Bft) 95,74 %
06.05.2021 17:10 12,0 C 11,7 C 9,5 C 54 % 1004,4 hPa 0,0 l/m 0 min 0 min 181 W/m 12,9 km/h (3 Bft) 91,30 %
06.05.2021 17:12 12,0 C 11,7 C 9,5 C 54 % 1004,3 hPa 0,0 l/m 0 min 0 min 172 W/m 3,2 km/h (1 Bft) 97,37 %
06.05.2021 17:14 12,0 C 12,2 C 9,5 C 53 % 1004,3 hPa 0,0 l/m 0 min 0 min 167 W/m 3,2 km/h (1 Bft) 95,74 %
06.05.2021 17:16 12,0 C 12,2 C 9,5 C 54 % 1004,3 hPa 0,0 l/m 0 min 0 min 167 W/m 6,4 km/h (2 Bft) 93,62 %
06.05.2021 17:18 12,0 C 12,2 C 9,5 C 56 % 1004,3 hPa 0,0 l/m 0 min 0 min 171 W/m 6,4 km/h (2 Bft) 96,43 %
06.05.2021 17:20 12,0 C 12,2 C 9,5 C 57 % 1004,3 hPa 0,0 l/m 0 min 0 min 172 W/m 9,7 km/h (2 Bft) 94,74 %
06.05.2021 17:22 12,0 C 12,2 C 9,5 C 56 % 1004,3 hPa 0,0 l/m 0 min 0 min 169 W/m 6,4 km/h (2 Bft) 95,74 %
06.05.2021 17:24 12,0 C 11,7 C 9,5 C 57 % 1004,4 hPa 0,0 l/m 0 min 0 min 171 W/m 6,4 km/h (2 Bft) 96,36 %
06.05.2021 17:26 11,9 C 12,2 C 9,5 C 56 % 1004,3 hPa 0,0 l/m 0 min 0 min 179 W/m 6,4 km/h (2 Bft) 94,74 %
06.05.2021 17:28 11,9 C 12,2 C 9,5 C 57 % 1004,4 hPa 0,0 l/m 0 min 0 min 179 W/m 0,0 km/h (0 Bft) 95,74 %
06.05.2021 17:30 11,9 C 12,2 C 9,5 C 58 % 1004,4 hPa 0,0 l/m 0 min 0 min 169 W/m 0,0 km/h (0 Bft) 96,43 %
06.05.2021 17:32 11,9 C 12,2 C 9,5 C 58 % 1004,4 hPa 0,0 l/m 0 min 0 min 161 W/m 3,2 km/h (1 Bft) 95,65 %
06.05.2021 17:34 11,9 C 12,2 C 9,5 C 57 % 1004,4 hPa 0,0 l/m 0 min 0 min 155 W/m 3,2 km/h (1 Bft) 93,62 %
06.05.2021 17:36 11,9 C 11,7 C 9,5 C 56 % 1004,4 hPa 0,0 l/m 0 min 0 min 151 W/m 16,1 km/h (3 Bft) 95,74 %
06.05.2021 17:38 11,8 C 11,7 C 9,5 C 56 % 1004,5 hPa 0,0 l/m 0 min 0 min 147 W/m 9,7 km/h (2 Bft) 95,74 %
06.05.2021 17:40 11,8 C 11,7 C 8,9 C 56 % 1004,4 hPa 0,0 l/m 0 min 0 min 144 W/m 12,9 km/h (3 Bft) 95,74 %
06.05.2021 17:42 11,6 C 11,1 C 8,9 C 55 % 1004,5 hPa 0,0 l/m 0 min 0 min 142 W/m 12,9 km/h (3 Bft) 94,00 %
06.05.2021 17:44 11,5 C 11,1 C 8,9 C 57 % 1004,4 hPa 0,0 l/m 0 min 0 min 138 W/m 6,4 km/h (2 Bft) 94,74 %
06.05.2021 17:46 11,5 C 11,7 C 8,9 C 57 % 1004,4 hPa 0,0 l/m 0 min 0 min 132 W/m 3,2 km/h (1 Bft) 95,92 %
06.05.2021 17:48 11,5 C 11,7 C 8,9 C 58 % 1004,4 hPa 0,0 l/m 0 min 0 min 125 W/m 3,2 km/h (1 Bft) 91,49 %
06.05.2021 17:50 11,5 C 11,7 C 8,4 C 59 % 1004,4 hPa 0,0 l/m 0 min 0 min 122 W/m 3,2 km/h (1 Bft) 93,18 %
06.05.2021 17:52 11,5 C 11,7 C 8,4 C 60 % 1004,4 hPa 0,0 l/m 0 min 0 min 121 W/m 3,2 km/h (1 Bft) 94,00 %
06.05.2021 17:54 11,5 C 11,7 C 8,4 C 60 % 1004,4 hPa 0,0 l/m 0 min 0 min 121 W/m 3,2 km/h (1 Bft) 93,62 %
06.05.2021 17:56 11,4 C 11,1 C 8,4 C 58 % 1004,4 hPa 0,0 l/m 0 min 0 min 122 W/m 12,9 km/h (3 Bft) 95,74 %
06.05.2021 17:58 11,4 C 11,1 C 8,9 C 58 % 1004,4 hPa 0,0 l/m 0 min 0 min 124 W/m 12,9 km/h (3 Bft) 94,74 %
06.05.2021 18:00 11,4 C 11,1 C 8,9 C 58 % 1004,4 hPa 0,0 l/m 0 min 0 min 126 W/m 12,9 km/h (3 Bft) 90,91 %
06.05.2021 18:02 11,3 C 11,1 C 8,9 C 59 % 1004,4 hPa 0,0 l/m 0 min 0 min 122 W/m 16,1 km/h (3 Bft) 98,00 %
06.05.2021 18:04 11,3 C 11,1 C 8,9 C 59 % 1004,4 hPa 0,0 l/m 0 min 0 min 116 W/m 3,2 km/h (1 Bft) 96,00 %
06.05.2021 18:08 11,3 C 11,1 C 8,9 C 60 % 1004,4 hPa 0,0 l/m 0 min 0 min 112 W/m 12,9 km/h (3 Bft) 95,29 %
06.05.2021 18:10 11,3 C 11,1 C 8,9 C 60 % 1004,4 hPa 0,0 l/m 0 min 0 min 106 W/m 9,7 km/h (2 Bft) 97,83 %
06.05.2021 18:12 11,2 C 11,1 C 8,9 C 61 % 1004,4 hPa 0,0 l/m 0 min 0 min 108 W/m 19,3 km/h (3 Bft) 95,74 %
06.05.2021 18:14 11,2 C 11,1 C 8,4 C 60 % 1004,4 hPa 0,0 l/m 0 min 0 min 113 W/m 16,1 km/h (3 Bft) 97,87 %
06.05.2021 18:16 11,1 C 11,1 C 8,4 C 60 % 1004,4 hPa 0,0 l/m 0 min 0 min 111 W/m 9,7 km/h (2 Bft) 93,62 %
06.05.2021 18:18 11,1 C 10,6 C 8,4 C 61 % 1004,4 hPa 0,0 l/m 0 min 0 min 100 W/m 16,1 km/h (3 Bft) 97,87 %
06.05.2021 18:20 11,1 C 10,6 C 8,4 C 61 % 1004,4 hPa 0,0 l/m 0 min 0 min 98 W/m 16,1 km/h (3 Bft) 97,87 %
06.05.2021 18:22 11,0 C 10,6 C 8,4 C 61 % 1004,4 hPa 0,0 l/m 0 min 0 min 104 W/m 3,2 km/h (1 Bft) 95,65 %
06.05.2021 18:24 11,0 C 10,6 C 8,4 C 62 % 1004,4 hPa 0,0 l/m 0 min 0 min 107 W/m 12,9 km/h (3 Bft) 95,74 %
06.05.2021 18:26 11,0 C 10,6 C 8,4 C 62 % 1004,4 hPa 0,0 l/m 0 min 0 min 109 W/m 12,9 km/h (3 Bft) 95,74 %
06.05.2021 18:28 11,0 C 10,6 C 8,4 C 62 % 1004,4 hPa 0,0 l/m 0 min 0 min 109 W/m 12,9 km/h (3 Bft) 97,87 %
06.05.2021 18:30 11,0 C 10,6 C 8,4 C 63 % 1004,4 hPa 0,0 l/m 0 min 0 min 109 W/m 12,9 km/h (3 Bft) 95,74 %
06.05.2021 18:32 11,0 C 10,6 C 8,4 C 63 % 1004,4 hPa 0,0 l/m 0 min 2 min 106 W/m 9,7 km/h (2 Bft) 97,87 %
06.05.2021 18:34 10,9 C 10,6 C 8,4 C 63 % 1004,5 hPa 0,0 l/m 0 min 0 min 102 W/m 9,7 km/h (2 Bft) 97,83 %
06.05.2021 18:36 10,9 C 10,6 C 8,4 C 64 % 1004,4 hPa 0,0 l/m 0 min 2 min 98 W/m 16,1 km/h (3 Bft) 97,87 %
06.05.2021 18:38 10,9 C 10,0 C 7,8 C 64 % 1004,4 hPa 0,0 l/m 0 min 0 min 96 W/m 16,1 km/h (3 Bft) 100,00 %
06.05.2021 18:40 10,8 C 10,0 C 7,8 C 65 % 1004,4 hPa 0,0 l/m 0 min 2 min 93 W/m 12,9 km/h (3 Bft) 100,00 %
06.05.2021 18:42 10,8 C 10,0 C 7,8 C 65 % 1004,4 hPa 0,0 l/m 0 min 2 min 91 W/m 12,9 km/h (3 Bft) 100,00 %
06.05.2021 18:44 10,8 C 10,0 C 7,8 C 66 % 1004,4 hPa 0,0 l/m 0 min 2 min 92 W/m 12,9 km/h (3 Bft) 100,00 %
06.05.2021 18:46 10,7 C 10,0 C 7,3 C 66 % 1004,4 hPa 0,0 l/m 0 min 0 min 95 W/m 6,4 km/h (2 Bft) 97,83 %
06.05.2021 18:48 10,7 C 10,0 C 7,3 C 66 % 1004,4 hPa 0,0 l/m 0 min 0 min 99 W/m 12,9 km/h (3 Bft) 100,00 %
06.05.2021 18:50 10,6 C 10,0 C 7,3 C 67 % 1004,4 hPa 0,0 l/m 0 min 0 min 102 W/m 6,4 km/h (2 Bft) 100,00 %
06.05.2021 18:52 10,6 C 10,0 C 7,3 C 67 % 1004,5 hPa 0,0 l/m 0 min 0 min 98 W/m 16,1 km/h (3 Bft) 97,87 %
06.05.2021 18:54 10,5 C 10,0 C 7,3 C 67 % 1004,5 hPa 0,0 l/m 0 min 0 min 93 W/m 16,1 km/h (3 Bft) 100,00 %
06.05.2021 18:56 10,5 C 10,0 C 7,3 C 67 % 1004,5 hPa 0,0 l/m 0 min 0 min 91 W/m 6,4 km/h (2 Bft) 100,00 %
06.05.2021 18:58 10,5 C 10,0 C 7,3 C 67 % 1004,4 hPa 0,0 l/m 0 min 2 min 94 W/m 9,7 km/h (2 Bft) 100,00 %
06.05.2021 19:00 10,4 C 10,0 C 7,3 C 67 % 1004,4 hPa 0,0 l/m 0 min 0 min 97 W/m 9,7 km/h (2 Bft) 97,87 %
06.05.2021 19:02 10,4 C 10,0 C 7,3 C 68 % 1004,4 hPa 0,0 l/m 0 min 0 min 102 W/m 6,4 km/h (2 Bft) 100,00 %
06.05.2021 19:04 10,4 C 10,0 C 7,3 C 68 % 1004,4 hPa 0,0 l/m 0 min 0 min 109 W/m 9,7 km/h (2 Bft) 100,00 %
06.05.2021 19:06 10,4 C 10,0 C 7,3 C 68 % 1004,5 hPa 0,0 l/m 0 min 0 min 119 W/m 12,9 km/h (3 Bft) 95,74 %
06.05.2021 19:08 10,4 C 10,0 C 7,3 C 68 % 1004,5 hPa 0,0 l/m 0 min 0 min 137 W/m 19,3 km/h (3 Bft) 100,00 %
06.05.2021 19:10 10,4 C 10,0 C 7,3 C 68 % 1004,5 hPa 0,0 l/m 2 min 0 min 143 W/m 6,4 km/h (2 Bft) 100,00 %
06.05.2021 19:12 10,3 C 10,0 C 7,8 C 68 % 1004,4 hPa 0,0 l/m 2 min 0 min 148 W/m 16,1 km/h (3 Bft) 100,00 %
06.05.2021 19:14 10,3 C 10,0 C 7,8 C 68 % 1004,4 hPa 0,0 l/m 2 min 0 min 158 W/m 16,1 km/h (3 Bft) 100,00 %
06.05.2021 19:16 10,3 C 10,6 C 7,8 C 68 % 1004,4 hPa 0,0 l/m 2 min 0 min 157 W/m 12,9 km/h (3 Bft) 100,00 %
06.05.2021 19:18 10,4 C 10,6 C 7,8 C 68 % 1004,4 hPa 0,0 l/m 2 min 0 min 159 W/m 12,9 km/h (3 Bft) 100,00 %
06.05.2021 19:20 10,4 C 10,6 C 7,8 C 68 % 1004,4 hPa 0,0 l/m 2 min 0 min 156 W/m 12,9 km/h (3 Bft) 100,00 %
06.05.2021 19:22 10,4 C 10,6 C 7,8 C 67 % 1004,4 hPa 0,0 l/m 2 min 0 min 148 W/m 12,9 km/h (3 Bft) 100,00 %
06.05.2021 19:24 10,4 C 10,0 C 7,8 C 67 % 1004,4 hPa 0,0 l/m 2 min 0 min 143 W/m 12,9 km/h (3 Bft) 100,00 %
06.05.2021 19:26 10,4 C 10,0 C 7,8 C 67 % 1004,5 hPa 0,0 l/m 2 min 0 min 140 W/m 19,3 km/h (3 Bft) 100,00 %
06.05.2021 19:28 10,4 C 10,0 C 7,8 C 67 % 1004,4 hPa 0,0 l/m 2 min 0 min 136 W/m 16,1 km/h (3 Bft) 97,87 %
06.05.2021 19:30 10,4 C 10,0 C 7,8 C 67 % 1004,4 hPa 0,0 l/m 2 min 0 min 138 W/m 12,9 km/h (3 Bft) 100,00 %
06.05.2021 19:32 10,4 C 10,6 C 7,8 C 67 % 1004,5 hPa 0,0 l/m 2 min 0 min 144 W/m 9,7 km/h (2 Bft) 97,83 %
06.05.2021 19:34 10,4 C 10,6 C 7,8 C 68 % 1004,5 hPa 0,0 l/m 2 min 0 min 140 W/m 6,4 km/h (2 Bft) 97,87 %
06.05.2021 19:36 10,4 C 10,6 C 7,8 C 68 % 1004,5 hPa 0,0 l/m 2 min 0 min 120 W/m 12,9 km/h (3 Bft) 100,00 %
06.05.2021 19:38 10,4 C 10,0 C 7,8 C 68 % 1004,5 hPa 0,0 l/m 0 min 0 min 93 W/m 16,1 km/h (3 Bft) 97,87 %
06.05.2021 19:40 10,3 C 10,0 C 7,8 C 67 % 1004,5 hPa 0,0 l/m 0 min 0 min 74 W/m 12,9 km/h (3 Bft) 100,00 %
06.05.2021 19:42 10,3 C 10,0 C 7,3 C 67 % 1004,5 hPa 0,0 l/m 0 min 0 min 64 W/m 9,7 km/h (2 Bft) 97,87 %
06.05.2021 19:44 10,3 C 10,0 C 7,3 C 67 % 1004,6 hPa 0,0 l/m 0 min 0 min 60 W/m 16,1 km/h (3 Bft) 97,83 %
06.05.2021 19:46 10,2 C 9,4 C 7,3 C 68 % 1004,6 hPa 0,0 l/m 0 min 0 min 62 W/m 12,9 km/h (3 Bft) 97,87 %
06.05.2021 19:48 10,1 C 9,4 C 7,3 C 68 % 1004,6 hPa 0,0 l/m 0 min 0 min 55 W/m 19,3 km/h (3 Bft) 97,87 %
06.05.2021 19:50 10,1 C 9,4 C 7,3 C 68 % 1004,6 hPa 0,0 l/m 0 min 0 min 51 W/m 16,1 km/h (3 Bft) 97,87 %
06.05.2021 19:52 10,1 C 9,4 C 7,3 C 69 % 1004,6 hPa 0,0 l/m 0 min 0 min 47 W/m 6,4 km/h (2 Bft) 95,74 %
06.05.2021 19:54 10,1 C 9,4 C 7,3 C 69 % 1004,6 hPa 0,0 l/m 0 min 0 min 47 W/m 12,9 km/h (3 Bft) 97,87 %
06.05.2021 19:56 10,0 C 9,4 C 7,3 C 69 % 1004,7 hPa 0,0 l/m 0 min 0 min 46 W/m 12,9 km/h (3 Bft) 95,65 %
06.05.2021 19:58 10,0 C 9,4 C 7,3 C 69 % 1004,6 hPa 0,0 l/m 0 min 0 min 42 W/m 16,1 km/h (3 Bft) 100,00 %
06.05.2021 20:00 10,0 C 9,4 C 7,3 C 69 % 1004,7 hPa 0,0 l/m 0 min 0 min 38 W/m 12,9 km/h (3 Bft) 97,87 %
06.05.2021 20:02 9,9 C 9,4 C 7,3 C 69 % 1004,7 hPa 0,0 l/m 0 min 0 min 36 W/m 12,9 km/h (3 Bft) 95,74 %
06.05.2021 20:04 9,9 C 9,4 C 7,3 C 70 % 1004,8 hPa 0,0 l/m 0 min 0 min 37 W/m 12,9 km/h (3 Bft) 97,87 %
06.05.2021 20:06 9,9 C 9,4 C 6,7 C 70 % 1004,8 hPa 0,0 l/m 0 min 0 min 35 W/m 6,4 km/h (2 Bft) 97,87 %
06.05.2021 20:08 9,8 C 9,4 C 6,7 C 70 % 1004,8 hPa 0,0 l/m 0 min 0 min 32 W/m 16,1 km/h (3 Bft) 97,83 %
06.05.2021 20:10 9,8 C 8,9 C 6,7 C 71 % 1004,8 hPa 0,0 l/m 0 min 0 min 25 W/m 12,9 km/h (3 Bft) 100,00 %
06.05.2021 20:12 9,8 C 8,9 C 6,7 C 71 % 1004,9 hPa 0,0 l/m 0 min 0 min 20 W/m 6,4 km/h (2 Bft) 97,87 %
06.05.2021 20:14 9,8 C 8,9 C 6,7 C 70 % 1004,8 hPa 0,0 l/m 0 min 0 min 17 W/m 12,9 km/h (3 Bft) 97,87 %
06.05.2021 20:16 9,7 C 8,9 C 6,7 C 71 % 1004,9 hPa 0,0 l/m 0 min 0 min 14 W/m 12,9 km/h (3 Bft) 97,87 %
06.05.2021 20:18 9,7 C 8,9 C 6,7 C 71 % 1004,9 hPa 0,0 l/m 0 min 0 min 14 W/m 6,4 km/h (2 Bft) 97,83 %
06.05.2021 20:20 9,6 C 8,9 C 6,7 C 71 % 1004,9 hPa 0,0 l/m 0 min 0 min 12 W/m 12,9 km/h (3 Bft) 97,87 %
06.05.2021 20:22 9,6 C 8,9 C 6,7 C 71 % 1005,0 hPa 0,0 l/m 0 min 0 min 12 W/m 9,7 km/h (2 Bft) 95,74 %
06.05.2021 20:24 9,6 C 8,9 C 6,7 C 71 % 1005,0 hPa 0,0 l/m 0 min 0 min 14 W/m 6,4 km/h (2 Bft) 98,00 %
06.05.2021 20:26 9,6 C 8,9 C 6,7 C 71 % 1005,0 hPa 0,0 l/m 0 min 0 min 15 W/m 9,7 km/h (2 Bft) 95,74 %
06.05.2021 20:28 9,6 C 8,9 C 6,7 C 71 % 1005,0 hPa 0,0 l/m 0 min 0 min 16 W/m 12,9 km/h (3 Bft) 97,14 %
06.05.2021 20:30 9,5 C 8,9 C 6,7 C 71 % 1005,0 hPa 0,0 l/m 0 min 0 min 15 W/m 9,7 km/h (2 Bft) 98,18 %
06.05.2021 20:32 9,5 C 8,9 C 6,7 C 71 % 1005,0 hPa 0,0 l/m 0 min 0 min 13 W/m 9,7 km/h (2 Bft) 96,00 %
06.05.2021 20:34 9,5 C 8,9 C 6,7 C 72 % 1005,1 hPa 0,0 l/m 0 min 0 min 12 W/m 9,7 km/h (2 Bft) 97,14 %
06.05.2021 20:36 9,5 C 8,9 C 6,7 C 72 % 1005,1 hPa 0,0 l/m 0 min 0 min 11 W/m 12,9 km/h (3 Bft) 98,11 %
06.05.2021 20:38 9,4 C 8,9 C 6,7 C 72 % 1005,1 hPa 0,0 l/m 0 min 0 min 11 W/m 12,9 km/h (3 Bft) 95,74 %
06.05.2021 20:40 9,4 C 8,9 C 6,7 C 72 % 1005,1 hPa 0,0 l/m 0 min 0 min 11 W/m 9,7 km/h (2 Bft) 97,87 %
06.05.2021 20:42 9,4 C 8,9 C 6,7 C 72 % 1005,2 hPa 0,0 l/m 0 min 0 min 11 W/m 9,7 km/h (2 Bft) 97,96 %
06.05.2021 20:44 9,4 C 8,9 C 6,7 C 73 % 1005,1 hPa 0,0 l/m 0 min 0 min 11 W/m 6,4 km/h (2 Bft) 98,00 %
06.05.2021 20:46 9,4 C 8,3 C 6,7 C 73 % 1005,1 hPa 0,0 l/m 0 min 0 min 9 W/m 6,4 km/h (2 Bft) 94,29 %
06.05.2021 20:48 9,4 C 8,3 C 6,7 C 73 % 1005,2 hPa 0,0 l/m 0 min 0 min 7 W/m 3,2 km/h (1 Bft) 98,21 %
06.05.2021 20:50 9,4 C 8,3 C 6,7 C 74 % 1005,3 hPa 0,0 l/m 0 min 0 min 5 W/m 6,4 km/h (2 Bft) 98,00 %
06.05.2021 20:52 9,4 C 8,3 C 6,1 C 73 % 1005,3 hPa 0,0 l/m 0 min 0 min 3 W/m 9,7 km/h (2 Bft) 100,00 %
06.05.2021 20:54 9,4 C 8,3 C 6,1 C 74 % 1005,3 hPa 0,0 l/m 0 min 0 min 0 W/m 6,4 km/h (2 Bft) 96,36 %
06.05.2021 20:56 9,3 C 8,3 C 6,1 C 74 % 1005,3 hPa 0,0 l/m 0 min 0 min 0 W/m 3,2 km/h (1 Bft) 98,00 %
06.05.2021 20:58 9,3 C 8,3 C 6,1 C 74 % 1005,4 hPa 0,0 l/m 0 min 0 min 0 W/m 6,4 km/h (2 Bft) 97,37 %
06.05.2021 21:00 9,3 C 8,3 C 6,1 C 74 % 1005,4 hPa 0,0 l/m 0 min 0 min 0 W/m 6,4 km/h (2 Bft) 97,87 %
06.05.2021 21:02 9,3 C 8,3 C 6,1 C 75 % 1005,4 hPa 0,0 l/m 0 min 0 min 0 W/m 6,4 km/h (2 Bft) 98,21 %
06.05.2021 21:04 9,3 C 8,3 C 6,1 C 75 % 1005,4 hPa 0,0 l/m 0 min 0 min 0 W/m 3,2 km/h (1 Bft) 95,92 %
06.05.2021 21:06 9,3 C 8,3 C 6,1 C 75 % 1005,4 hPa 0,0 l/m 0 min 0 min 0 W/m 3,2 km/h (1 Bft) 93,62 %
06.05.2021 21:08 9,3 C 8,3 C 6,1 C 75 % 1005,4 hPa 0,0 l/m 0 min 0 min 0 W/m 3,2 km/h (1 Bft) 97,37 %
06.05.2021 21:10 9,3 C 8,3 C 6,1 C 75 % 1005,5 hPa 0,0 l/m 0 min 0 min 0 W/m 3,2 km/h (1 Bft) 93,62 %
06.05.2021 21:12 9,2 C 8,3 C 6,1 C 75 % 1005,5 hPa 0,0 l/m 0 min 0 min 0 W/m 0,0 km/h (0 Bft) 96,00 %
06.05.2021 21:14 9,3 C 8,3 C 6,1 C 75 % 1005,5 hPa 0,0 l/m 0 min 0 min 0 W/m 3,2 km/h (1 Bft) 95,74 %
06.05.2021 21:16 9,3 C 8,3 C 6,1 C 76 % 1005,5 hPa 0,0 l/m 0 min 0 min 0 W/m 3,2 km/h (1 Bft) 94,23 %
06.05.2021 21:18 9,3 C 8,3 C 6,1 C 76 % 1005,5 hPa 0,0 l/m 0 min 0 min 0 W/m 3,2 km/h (1 Bft) 94,74 %
06.05.2021 21:20 9,3 C 8,3 C 6,1 C 76 % 1005,5 hPa 0,0 l/m 0 min 0 min 0 W/m 3,2 km/h (1 Bft) 96,00 %
06.05.2021 21:22 9,3 C 8,3 C 6,1 C 76 % 1005,6 hPa 0,0 l/m 0 min 0 min 0 W/m 6,4 km/h (2 Bft) 95,74 %
06.05.2021 21:24 9,2 C 8,3 C 6,1 C 76 % 1005,6 hPa 0,0 l/m 0 min 0 min 0 W/m 3,2 km/h (1 Bft) 93,18 %
06.05.2021 21:26 9,2 C 8,3 C 6,1 C 76 % 1005,6 hPa 0,0 l/m 0 min 0 min 0 W/m 6,4 km/h (2 Bft) 95,74 %
06.05.2021 21:28 9,2 C 8,3 C 6,1 C 76 % 1005,7 hPa 0,0 l/m 0 min 0 min 0 W/m 3,2 km/h (1 Bft) 93,62 %
06.05.2021 21:30 9,2 C 8,3 C 6,1 C 76 % 1005,7 hPa 0,0 l/m 0 min 0 min 0 W/m 6,4 km/h (2 Bft) 95,92 %
06.05.2021 21:32 9,2 C 8,3 C 6,1 C 77 % 1005,7 hPa 0,0 l/m 0 min 0 min 0 W/m 3,2 km/h (1 Bft) 98,11 %
06.05.2021 21:34 9,2 C 8,3 C 6,1 C 77 % 1005,8 hPa 0,0 l/m 0 min 0 min 0 W/m 6,4 km/h (2 Bft) 95,74 %
06.05.2021 21:36 9,1 C 8,3 C 6,1 C 77 % 1005,9 hPa 0,0 l/m 0 min 0 min 0 W/m 6,4 km/h (2 Bft) 92,11 %
06.05.2021 21:38 9,2 C 8,3 C 6,1 C 77 % 1005,9 hPa 0,0 l/m 0 min 0 min 0 W/m 3,2 km/h (1 Bft) 96,00 %
06.05.2021 21:40 9,1 C 8,3 C 6,1 C 77 % 1005,9 hPa 0,0 l/m 0 min 0 min 0 W/m 3,2 km/h (1 Bft) 97,83 %
06.05.2021 21:42 9,1 C 8,3 C 6,1 C 77 % 1005,9 hPa 0,0 l/m 0 min 0 min 0 W/m 3,2 km/h (1 Bft) 95,24 %
06.05.2021 21:44 9,1 C 8,3 C 6,1 C 77 % 1006,0 hPa 0,0 l/m 0 min 0 min 0 W/m 6,4 km/h (2 Bft) 95,74 %
06.05.2021 21:46 9,1 C 8,3 C 6,1 C 77 % 1006,0 hPa 0,0 l/m 0 min 0 min 0 W/m 6,4 km/h (2 Bft) 96,55 %
06.05.2021 21:48 9,1 C 8,3 C 6,1 C 77 % 1006,0 hPa 0,0 l/m 0 min 0 min 0 W/m 6,4 km/h (2 Bft) 94,74 %
06.05.2021 21:50 9,1 C 8,3 C 6,1 C 77 % 1006,0 hPa 0,0 l/m 0 min 0 min 0 W/m 3,2 km/h (1 Bft) 97,87 %
06.05.2021 21:52 9,1 C 8,3 C 6,1 C 77 % 1006,1 hPa 0,0 l/m 0 min 0 min 0 W/m 6,4 km/h (2 Bft) 97,96 %
06.05.2021 21:54 9,1 C 8,3 C 6,1 C 78 % 1006,1 hPa 0,0 l/m 0 min 0 min 0 W/m 12,9 km/h (3 Bft) 97,87 %
06.05.2021 21:56 9,0 C 8,3 C 6,1 C 78 % 1006,1 hPa 0,0 l/m 0 min 0 min 0 W/m 6,4 km/h (2 Bft) 95,45 %
06.05.2021 21:58 9,0 C 8,3 C 6,1 C 78 % 1006,2 hPa 0,0 l/m 0 min 0 min 0 W/m 6,4 km/h (2 Bft) 98,00 %
06.05.2021 22:00 9,0 C 8,3 C 6,1 C 78 % 1006,2 hPa 0,0 l/m 0 min 0 min 0 W/m 6,4 km/h (2 Bft) 98,00 %
06.05.2021 22:02 9,0 C 8,3 C 6,1 C 78 % 1006,1 hPa 0,0 l/m 0 min 0 min 0 W/m 12,9 km/h (3 Bft) 97,37 %
06.05.2021 22:04 9,0 C 8,3 C 6,1 C 79 % 1006,1 hPa 0,0 l/m 0 min 0 min 0 W/m 3,2 km/h (1 Bft) 97,87 %
06.05.2021 22:06 9,0 C 8,3 C 5,6 C 79 % 1006,2 hPa 0,0 l/m 0 min 2 min 0 W/m 6,4 km/h (2 Bft) 98,18 %
06.05.2021 22:08 9,0 C 8,3 C 5,0 C 80 % 1006,3 hPa 0,0 l/m 0 min 2 min 0 W/m 12,9 km/h (3 Bft) 97,37 %
06.05.2021 22:10 8,9 C 7,8 C 5,0 C 81 % 1006,4 hPa 0,0 l/m 0 min 2 min 0 W/m 19,3 km/h (3 Bft) 95,74 %
06.05.2021 22:12 8,9 C 7,8 C 4,5 C 81 % 1006,4 hPa 0,0 l/m 0 min 2 min 0 W/m 12,9 km/h (3 Bft) 97,87 %
06.05.2021 22:14 8,8 C 7,8 C 4,5 C 81 % 1006,4 hPa 0,0 l/m 0 min 2 min 0 W/m 19,3 km/h (3 Bft) 97,87 %
06.05.2021 22:16 8,6 C 7,8 C 4,5 C 81 % 1006,5 hPa 0,0 l/m 0 min 2 min 0 W/m 25,7 km/h (4 Bft) 97,83 %
06.05.2021 22:18 8,5 C 7,2 C 4,5 C 82 % 1006,4 hPa 0,0 l/m 0 min 2 min 0 W/m 16,1 km/h (3 Bft) 94,64 %
06.05.2021 22:20 8,5 C 7,2 C 4,5 C 82 % 1006,5 hPa 0,2 l/m 0 min 2 min 0 W/m 12,9 km/h (3 Bft) 98,00 %
06.05.2021 22:22 8,4 C 7,2 C 4,5 C 82 % 1006,5 hPa 0,0 l/m 0 min 2 min 0 W/m 12,9 km/h (3 Bft) 94,74 %
06.05.2021 22:24 8,3 C 7,2 C 4,5 C 83 % 1006,6 hPa 0,0 l/m 0 min 2 min 0 W/m 12,9 km/h (3 Bft) 95,74 %
06.05.2021 22:26 8,3 C 7,2 C 4,5 C 83 % 1006,6 hPa 0,0 l/m 0 min 2 min 0 W/m 12,9 km/h (3 Bft) 97,87 %
06.05.2021 22:28 8,2 C 7,2 C 3,9 C 83 % 1006,7 hPa 0,0 l/m 0 min 2 min 0 W/m 16,1 km/h (3 Bft) 98,18 %
06.05.2021 22:30 8,1 C 6,7 C 3,9 C 84 % 1006,7 hPa 0,0 l/m 0 min 2 min 0 W/m 12,9 km/h (3 Bft) 97,37 %
06.05.2021 22:32 8,0 C 6,7 C 3,9 C 85 % 1006,7 hPa 0,2 l/m 0 min 2 min 0 W/m 9,7 km/h (2 Bft) 98,00 %
06.05.2021 22:34 7,9 C 6,1 C 3,9 C 85 % 1006,8 hPa 0,0 l/m 0 min 2 min 0 W/m 9,7 km/h (2 Bft) 96,00 %
06.05.2021 22:36 7,8 C 6,1 C 3,9 C 86 % 1006,8 hPa 0,2 l/m 0 min 2 min 0 W/m 3,2 km/h (1 Bft) 95,12 %
06.05.2021 22:38 7,8 C 6,1 C 3,9 C 87 % 1006,8 hPa 0,2 l/m 0 min 2 min 0 W/m 3,2 km/h (1 Bft) 93,88 %
06.05.2021 22:40 7,7 C 6,1 C 3,9 C 87 % 1006,9 hPa 0,2 l/m 0 min 2 min 0 W/m 6,4 km/h (2 Bft) 97,87 %
06.05.2021 22:42 7,6 C 6,1 C 3,4 C 88 % 1006,8 hPa 0,2 l/m 0 min 2 min 0 W/m 12,9 km/h (3 Bft) 98,00 %
06.05.2021 22:44 7,5 C 6,1 C 3,4 C 88 % 1006,9 hPa 0,0 l/m 0 min 2 min 0 W/m 9,7 km/h (2 Bft) 97,14 %
06.05.2021 22:46 7,5 C 6,1 C 3,4 C 89 % 1006,9 hPa 0,0 l/m 0 min 2 min 0 W/m 6,4 km/h (2 Bft) 98,21 %
06.05.2021 22:48 7,4 C 6,1 C 3,4 C 89 % 1007,0 hPa 0,0 l/m 0 min 2 min 0 W/m 9,7 km/h (2 Bft) 97,96 %
06.05.2021 22:50 7,4 C 6,1 C 3,4 C 89 % 1007,0 hPa 0,0 l/m 0 min 2 min 0 W/m 12,9 km/h (3 Bft) 97,83 %
06.05.2021 22:52 7,3 C 5,6 C 3,4 C 90 % 1007,1 hPa 0,2 l/m 0 min 2 min 0 W/m 29,0 km/h (5 Bft) 91,43 %
06.05.2021 22:54 7,0 C 5,6 C 2,8 C 89 % 1007,1 hPa 0,2 l/m 0 min 2 min 0 W/m 22,5 km/h (4 Bft) 98,21 %
06.05.2021 22:56 6,9 C 5,6 C 2,8 C 89 % 1007,1 hPa 0,0 l/m 0 min 2 min 0 W/m 16,1 km/h (3 Bft) 98,00 %
06.05.2021 22:58 6,7 C 5,6 C 2,8 C 89 % 1007,1 hPa 0,0 l/m 0 min 2 min 0 W/m 29,0 km/h (5 Bft) 98,00 %
06.05.2021 23:00 6,6 C 5,6 C 2,8 C 90 % 1007,1 hPa 0,0 l/m 0 min 2 min 0 W/m 32,2 km/h (5 Bft) 97,37 %
06.05.2021 23:02 6,5 C 5,6 C 2,8 C 90 % 1007,1 hPa 0,0 l/m 0 min 2 min 0 W/m 22,5 km/h (4 Bft) 97,96 %
06.05.2021 23:04 6,4 C 5,0 C 2,8 C 90 % 1007,2 hPa 0,2 l/m 0 min 2 min 0 W/m 22,5 km/h (4 Bft) 97,62 %
06.05.2021 23:06 6,4 C 5,0 C 2,8 C 90 % 1007,2 hPa 0,0 l/m 0 min 2 min 0 W/m 22,5 km/h (4 Bft) 100,00 %
06.05.2021 23:08 6,4 C 5,0 C 2,8 C 91 % 1007,2 hPa 0,2 l/m 0 min 2 min 0 W/m 16,1 km/h (3 Bft) 100,00 %
06.05.2021 23:10 6,3 C 5,0 C 2,8 C 91 % 1007,2 hPa 0,0 l/m 0 min 2 min 0 W/m 16,1 km/h (3 Bft) 100,00 %
06.05.2021 23:12 6,3 C 5,0 C 2,8 C 91 % 1007,3 hPa 0,0 l/m 0 min 2 min 0 W/m 12,9 km/h (3 Bft) 100,00 %
06.05.2021 23:14 6,2 C 5,0 C 2,8 C 91 % 1007,3 hPa 0,0 l/m 0 min 2 min 0 W/m 12,9 km/h (3 Bft) 52,27 %
06.05.2021 23:16 6,1 C 5,0 C 2,8 C 91 % 1007,3 hPa 0,2 l/m 0 min 2 min 0 W/m 12,9 km/h (3 Bft) 100,00 %
06.05.2021 23:18 6,1 C 5,0 C 2,8 C 92 % 1007,3 hPa 0,0 l/m 0 min 2 min 0 W/m 19,3 km/h (3 Bft) 98,00 %
06.05.2021 23:20 6,0 C 5,0 C 2,8 C 92 % 1007,3 hPa 0,0 l/m 0 min 2 min 0 W/m 12,9 km/h (3 Bft) 100,00 %
06.05.2021 23:22 6,0 C 5,0 C 2,8 C 92 % 1007,4 hPa 0,2 l/m 0 min 2 min 0 W/m 16,1 km/h (3 Bft) 100,00 %
06.05.2021 23:24 6,0 C 5,0 C 2,8 C 92 % 1007,4 hPa 0,0 l/m 0 min 2 min 0 W/m 16,1 km/h (3 Bft) 100,00 %
06.05.2021 23:26 5,9 C 5,0 C 2,8 C 92 % 1007,3 hPa 0,0 l/m 0 min 2 min 0 W/m 22,5 km/h (4 Bft) 100,00 %
06.05.2021 23:28 5,9 C 5,0 C 2,8 C 92 % 1007,4 hPa 0,0 l/m 0 min 2 min 0 W/m 22,5 km/h (4 Bft) 100,00 %
06.05.2021 23:30 5,9 C 5,0 C 2,8 C 92 % 1007,3 hPa 0,0 l/m 0 min 2 min 0 W/m 9,7 km/h (2 Bft) 100,00 %
06.05.2021 23:32 5,9 C 5,0 C 2,8 C 92 % 1007,4 hPa 0,0 l/m 0 min 2 min 0 W/m 12,9 km/h (3 Bft) 95,92 %
06.05.2021 23:34 5,9 C 5,0 C 2,8 C 93 % 1007,3 hPa 0,0 l/m 0 min 2 min 0 W/m 9,7 km/h (2 Bft) 100,00 %
06.05.2021 23:36 5,9 C 5,0 C 2,8 C 93 % 1007,3 hPa 0,2 l/m 0 min 2 min 0 W/m 9,7 km/h (2 Bft) 100,00 %
06.05.2021 23:38 5,8 C 5,0 C 2,8 C 93 % 1007,3 hPa 0,0 l/m 0 min 2 min 0 W/m 16,1 km/h (3 Bft) 100,00 %
06.05.2021 23:40 5,8 C 5,0 C 2,8 C 93 % 1007,4 hPa 0,0 l/m 0 min 2 min 0 W/m 19,3 km/h (3 Bft) 100,00 %
06.05.2021 23:42 5,8 C 5,0 C 2,8 C 93 % 1007,5 hPa 0,0 l/m 0 min 2 min 0 W/m 19,3 km/h (3 Bft) 100,00 %
06.05.2021 23:44 5,7 C 5,0 C 2,8 C 93 % 1007,4 hPa 0,0 l/m 0 min 2 min 0 W/m 16,1 km/h (3 Bft) 97,14 %
06.05.2021 23:46 5,7 C 5,0 C 2,8 C 93 % 1007,4 hPa 0,0 l/m 0 min 2 min 0 W/m 9,7 km/h (2 Bft) 100,00 %
06.05.2021 23:48 5,7 C 5,0 C 2,8 C 93 % 1007,4 hPa 0,2 l/m 0 min 2 min 0 W/m 12,9 km/h (3 Bft) 100,00 %
06.05.2021 23:50 5,6 C 5,0 C 2,8 C 93 % 1007,4 hPa 0,0 l/m 0 min 2 min 0 W/m 9,7 km/h (2 Bft) 97,87 %
06.05.2021 23:52 5,6 C 5,0 C 2,8 C 93 % 1007,5 hPa 0,0 l/m 0 min 2 min 0 W/m 12,9 km/h (3 Bft) 100,00 %
06.05.2021 23:54 5,6 C 5,0 C 2,8 C 93 % 1007,5 hPa 0,0 l/m 0 min 2 min 0 W/m 12,9 km/h (3 Bft) 100,00 %
06.05.2021 23:56 5,5 C 5,0 C 2,8 C 93 % 1007,3 hPa 0,0 l/m 0 min 2 min 0 W/m 9,7 km/h (2 Bft) 98,15 %
06.05.2021 23:58 5,5 C 5,0 C 2,8 C 93 % 1007,4 hPa 0,0 l/m 0 min 0 min 0 W/m 9,7 km/h (2 Bft) 100,00 %
_ Min-Zeit 03:50 02:12 01:12 15:24 16:24 - - - - 00:02 07:22
Minimum _ 4,6 C 3,9 C 1,7 C 51 % 1004,3 hPa - - - - 0,0 km/h (0 Bft) 50,00 %
_ Max-Zeit 15:18 15:34 12:28 06:34 00:04 00:56 12:08 04:09 12:28 04:16 00:04
Maximum _ 14,0 C 17,2 C 22,8 C 95 % 1010,3 hPa 0,2 l/m 4 min 5 min 1095 W/m 32,2 km/h
S-SW (5 Bft)
100,00 %
Durchschnitt _ 8,3 C 8,5 C 6,4 C 78 % 1007,0 hPa #4,0 l/m #4:52 h #3:52 h 282 W/m 10,1 km/h (2 Bft) 96,76 %
© 2021 W. Hausmann